PWSweather.com
Personal Weather Stations
Station Observations
DL5ARK
SonnebergDE

SonnebergDE

Lat: 50.34904861, Lon: 11.18112087

Elevation: 1214

Station Type: Selfmade

http://www.sumbarg.de

High Low Average
Temperature 87.4°F30.8°C 62.3°F16.8°C 75.1°F23.9°C
Dew Point 71.1°F21.7°C 49.9°F9.9°C 61.8°F16.6°C
Winds 11.2 mph 18.0 kmh Calm Calm 3.0 mph SE4.8 kmh SE
Wind Gusts 11.2 mph18.0 kmh -- 3.0 mph4.8 kmh
Humidity 74% 23% 49%
Pressure 30.25 in1024.4 mb 30.18 in1022.0 mb -
Precipitation 0.00 in0.0 mm - -
Hour Temp Dew Point Humidity Winds Wind Gusts Pressure Precip Precip Rate Daily Precip Total
12:00 AM 77.0°F25.0°C 70.2°F21.2°C 63% 8.8 mph NE14.2 kmh NE 8.9 mph14.3 kmh 30.18 in1022.0 mb 0.00 in0.0 mm 0.00 in0.0 mm 0.00 in0.0 mm
12:06 AM 76.8°F24.9°C 71.0°F21.7°C 64% 6.4 mph ENE10.3 kmh ENE 6.4 mph10.3 kmh 30.18 in1022.0 mb 0.00 in0.0 mm 0.00 in0.0 mm 0.00 in0.0 mm
12:09 AM 76.6°F24.8°C 70.8°F21.6°C 64% 4.4 mph NNW7.1 kmh NNW 4.4 mph7.1 kmh 30.18 in1022.0 mb 0.00 in0.0 mm 0.00 in0.0 mm 0.00 in0.0 mm
12:12 AM 76.6°F24.8°C 71.0°F21.7°C 64% 6.5 mph NE10.5 kmh NE 6.5 mph10.5 kmh 30.18 in1022.0 mb 0.00 in0.0 mm 0.00 in0.0 mm 0.00 in0.0 mm
12:15 AM 76.7°F24.8°C 71.0°F21.7°C 65% 3.2 mph NNW5.1 kmh NNW 3.2 mph5.1 kmh 30.18 in1022.0 mb 0.00 in0.0 mm 0.00 in0.0 mm 0.00 in0.0 mm
12:18 AM 76.3°F24.6°C 70.4°F21.3°C 65% 7.3 mph NNW11.7 kmh NNW 7.3 mph11.7 kmh 30.18 in1022.0 mb 0.00 in0.0 mm 0.00 in0.0 mm 0.00 in0.0 mm
12:21 AM 76.2°F24.6°C 71.1°F21.7°C 65% 9.1 mph NE14.6 kmh NE 9.2 mph14.8 kmh 30.18 in1022.0 mb 0.00 in0.0 mm 0.00 in0.0 mm 0.00 in0.0 mm
12:24 AM 76.3°F24.6°C 70.1°F21.2°C 65% 3.4 mph NE5.5 kmh NE 3.7 mph6.0 kmh 30.19 in1022.4 mb 0.00 in0.0 mm 0.00 in0.0 mm 0.00 in0.0 mm
12:27 AM 75.9°F24.4°C 70.4°F21.3°C 65% 3.8 mph NNE6.1 kmh NNE 3.8 mph6.1 kmh 30.19 in1022.4 mb 0.00 in0.0 mm 0.00 in0.0 mm 0.00 in0.0 mm
12:30 AM 75.7°F24.3°C 71.0°F21.7°C 65% 2.0 mph NE3.2 kmh NE 2.0 mph3.2 kmh 30.19 in1022.4 mb 0.00 in0.0 mm 0.00 in0.0 mm 0.00 in0.0 mm
12:33 AM 75.4°F24.1°C 70.5°F21.4°C 65% 4.4 mph NE7.1 kmh NE 4.4 mph7.1 kmh 30.19 in1022.4 mb 0.00 in0.0 mm 0.00 in0.0 mm 0.00 in0.0 mm
12:36 AM 75.4°F24.1°C 70.6°F21.4°C 65% 3.6 mph NE5.8 kmh NE 3.6 mph5.8 kmh 30.19 in1022.4 mb 0.00 in0.0 mm 0.00 in0.0 mm 0.00 in0.0 mm
12:39 AM 75.3°F24.1°C 70.7°F21.5°C 65% 2.4 mph NNW3.9 kmh NNW 2.4 mph3.9 kmh 30.19 in1022.4 mb 0.00 in0.0 mm 0.00 in0.0 mm 0.00 in0.0 mm
12:42 AM 75.4°F24.1°C 70.0°F21.1°C 65% 9.3 mph NNE15.0 kmh NNE 9.4 mph15.1 kmh 30.19 in1022.4 mb 0.00 in0.0 mm 0.00 in0.0 mm 0.00 in0.0 mm
12:45 AM 75.3°F24.1°C 70.8°F21.6°C 66% 4.8 mph NE7.7 kmh NE 4.8 mph7.7 kmh 30.19 in1022.4 mb 0.00 in0.0 mm 0.00 in0.0 mm 0.00 in0.0 mm
12:48 AM 75.3°F24.1°C 70.6°F21.4°C 66% 3.6 mph NE5.8 kmh NE 3.6 mph5.8 kmh 30.19 in1022.4 mb 0.00 in0.0 mm 0.00 in0.0 mm 0.00 in0.0 mm
12:51 AM 75.1°F23.9°C 70.0°F21.1°C 66% 7.7 mph ESE12.4 kmh ESE 7.7 mph12.4 kmh 30.19 in1022.4 mb 0.00 in0.0 mm 0.00 in0.0 mm 0.00 in0.0 mm
12:54 AM 75.0°F23.9°C 71.0°F21.7°C 66% 1.2 mph 1.9 kmh 1.2 mph1.9 kmh 30.19 in1022.4 mb 0.00 in0.0 mm 0.00 in0.0 mm 0.00 in0.0 mm
12:57 AM 74.8°F23.8°C 70.5°F21.4°C 66% 4.4 mph NE7.1 kmh NE 4.4 mph7.1 kmh 30.20 in1022.7 mb 0.00 in0.0 mm 0.00 in0.0 mm 0.00 in0.0 mm
01:00 AM 74.8°F23.8°C 70.6°F21.4°C 66% 4.4 mph ESE7.1 kmh ESE 4.5 mph7.2 kmh 30.19 in1022.4 mb 0.00 in0.0 mm 0.00 in0.0 mm 0.00 in0.0 mm
01:03 AM 74.6°F23.7°C 70.5°F21.4°C 66% 1.9 mph NE3.1 kmh NE 1.9 mph3.1 kmh 30.19 in1022.4 mb 0.00 in0.0 mm 0.00 in0.0 mm 0.00 in0.0 mm
01:06 AM 74.3°F23.5°C 70.5°F21.4°C 66% 0.4 mph NNW0.6 kmh NNW 0.4 mph0.6 kmh 30.20 in1022.7 mb 0.00 in0.0 mm 0.00 in0.0 mm 0.00 in0.0 mm
01:09 AM 74.6°F23.7°C 70.7°F21.5°C 66% 2.0 mph NNW3.2 kmh NNW 2.0 mph3.2 kmh 30.20 in1022.7 mb 0.00 in0.0 mm 0.00 in0.0 mm 0.00 in0.0 mm
01:12 AM 74.2°F23.4°C 70.0°F21.1°C 66% 4.4 mph W7.1 kmh W 4.4 mph7.1 kmh 30.19 in1022.4 mb 0.00 in0.0 mm 0.00 in0.0 mm 0.00 in0.0 mm
01:15 AM 74.0°F23.3°C 70.6°F21.4°C 67% 1.6 mph WSW2.6 kmh WSW 1.6 mph2.6 kmh 30.20 in1022.7 mb 0.00 in0.0 mm 0.00 in0.0 mm 0.00 in0.0 mm
01:18 AM 74.2°F23.4°C 70.9°F21.6°C 67% Calm Calm -- 30.20 in1022.7 mb 0.00 in0.0 mm 0.00 in0.0 mm 0.00 in0.0 mm
01:21 AM 73.4°F23.0°C 69.9°F21.1°C 67% 2.8 mph W4.5 kmh W 2.9 mph4.7 kmh 30.20 in1022.7 mb 0.00 in0.0 mm 0.00 in0.0 mm 0.00 in0.0 mm
01:24 AM 73.6°F23.1°C 70.7°F21.5°C 66% 1.9 mph NNW3.1 kmh NNW 1.9 mph3.1 kmh 30.20 in1022.7 mb 0.00 in0.0 mm 0.00 in0.0 mm 0.00 in0.0 mm
01:27 AM 73.7°F23.2°C 70.1°F21.2°C 67% 2.7 mph W4.3 kmh W 2.7 mph4.3 kmh 30.20 in1022.7 mb 0.00 in0.0 mm 0.00 in0.0 mm 0.00 in0.0 mm
01:30 AM 73.4°F23.0°C 70.6°F21.4°C 67% 3.5 mph NNW5.6 kmh NNW 3.5 mph5.6 kmh 30.20 in1022.7 mb 0.00 in0.0 mm 0.00 in0.0 mm 0.00 in0.0 mm
01:33 AM 73.3°F22.9°C 70.2°F21.2°C 67% 4.6 mph NNW7.4 kmh NNW 4.6 mph7.4 kmh 30.20 in1022.7 mb 0.00 in0.0 mm 0.00 in0.0 mm 0.00 in0.0 mm
01:36 AM 73.4°F23.0°C 69.7°F20.9°C 67% 1.5 mph SW2.4 kmh SW 1.5 mph2.4 kmh 30.20 in1022.7 mb 0.00 in0.0 mm 0.00 in0.0 mm 0.00 in0.0 mm
01:39 AM 73.1°F22.8°C 70.3°F21.3°C 67% 2.4 mph SW3.9 kmh SW 2.4 mph3.9 kmh 30.20 in1022.7 mb 0.00 in0.0 mm 0.00 in0.0 mm 0.00 in0.0 mm
01:42 AM 72.7°F22.6°C 69.9°F21.1°C 67% 1.6 mph SW2.6 kmh SW 1.6 mph2.6 kmh 30.20 in1022.7 mb 0.00 in0.0 mm 0.00 in0.0 mm 0.00 in0.0 mm
01:45 AM 72.6°F22.6°C 69.5°F20.8°C 66% 6.5 mph NNW10.5 kmh NNW 6.5 mph10.5 kmh 30.20 in1022.7 mb 0.00 in0.0 mm 0.00 in0.0 mm 0.00 in0.0 mm
01:48 AM 72.6°F22.6°C 69.3°F20.7°C 67% 2.0 mph NNW3.2 kmh NNW 2.0 mph3.2 kmh 30.20 in1022.7 mb 0.00 in0.0 mm 0.00 in0.0 mm 0.00 in0.0 mm
01:51 AM 72.8°F22.7°C 69.9°F21.1°C 67% 1.2 mph 1.9 kmh 1.2 mph1.9 kmh 30.20 in1022.7 mb 0.00 in0.0 mm 0.00 in0.0 mm 0.00 in0.0 mm
01:57 AM 73.1°F22.8°C 69.6°F20.9°C 67% 3.2 mph NNW5.1 kmh NNW 3.3 mph5.3 kmh 30.21 in1023.0 mb 0.00 in0.0 mm 0.00 in0.0 mm 0.00 in0.0 mm
02:00 AM 73.2°F22.9°C 70.1°F21.2°C 68% 2.8 mph NNW4.5 kmh NNW 2.9 mph4.7 kmh 30.20 in1022.7 mb 0.00 in0.0 mm 0.00 in0.0 mm 0.00 in0.0 mm
02:03 AM 72.8°F22.7°C 69.5°F20.8°C 68% 0.4 mph NW0.6 kmh NW 0.4 mph0.6 kmh 30.20 in1022.7 mb 0.00 in0.0 mm 0.00 in0.0 mm 0.00 in0.0 mm
02:06 AM 72.6°F22.6°C 69.9°F21.1°C 67% 2.4 mph NNW3.9 kmh NNW 2.4 mph3.9 kmh 30.20 in1022.7 mb 0.00 in0.0 mm 0.00 in0.0 mm 0.00 in0.0 mm
02:09 AM 73.2°F22.9°C 69.0°F20.6°C 68% 3.2 mph NNW5.1 kmh NNW 3.3 mph5.3 kmh 30.20 in1022.7 mb 0.00 in0.0 mm 0.00 in0.0 mm 0.00 in0.0 mm
02:15 AM 72.7°F22.6°C 70.1°F21.2°C 68% 1.9 mph NNW3.1 kmh NNW 2.0 mph3.2 kmh 30.20 in1022.7 mb 0.00 in0.0 mm 0.00 in0.0 mm 0.00 in0.0 mm
02:18 AM 72.1°F22.3°C 69.9°F21.1°C 68% Calm Calm -- 30.20 in1022.7 mb 0.00 in0.0 mm 0.00 in0.0 mm 0.00 in0.0 mm
02:21 AM 71.7°F22.1°C 69.2°F20.7°C 68% 0.8 mph NNW1.3 kmh NNW 0.8 mph1.3 kmh 30.21 in1023.0 mb 0.00 in0.0 mm 0.00 in0.0 mm 0.00 in0.0 mm
02:24 AM 71.7°F22.1°C 69.6°F20.9°C 68% 0.8 mph NE1.3 kmh NE 0.8 mph1.3 kmh 30.21 in1023.0 mb 0.00 in0.0 mm 0.00 in0.0 mm 0.00 in0.0 mm
02:27 AM 71.3°F21.8°C 69.1°F20.6°C 69% Calm Calm -- 30.21 in1023.0 mb 0.00 in0.0 mm 0.00 in0.0 mm 0.00 in0.0 mm
02:30 AM 71.0°F21.7°C 70.2°F21.2°C 69% Calm Calm -- 30.20 in1022.7 mb 0.00 in0.0 mm 0.00 in0.0 mm 0.00 in0.0 mm
02:36 AM 71.0°F21.7°C 69.8°F21.0°C 69% Calm Calm -- 30.20 in1022.7 mb 0.00 in0.0 mm 0.00 in0.0 mm 0.00 in0.0 mm
02:39 AM 70.9°F21.6°C 69.6°F20.9°C 69% Calm Calm -- 30.20 in1022.7 mb 0.00 in0.0 mm 0.00 in0.0 mm 0.00 in0.0 mm
02:45 AM 70.4°F21.3°C 69.6°F20.9°C 69% Calm Calm -- 30.20 in1022.7 mb 0.00 in0.0 mm 0.00 in0.0 mm 0.00 in0.0 mm
02:48 AM 70.6°F21.4°C 68.8°F20.4°C 69% Calm Calm -- 30.20 in1022.7 mb 0.00 in0.0 mm 0.00 in0.0 mm 0.00 in0.0 mm
02:51 AM 70.6°F21.4°C 69.9°F21.1°C 70% Calm Calm -- 30.21 in1023.0 mb 0.00 in0.0 mm 0.00 in0.0 mm 0.00 in0.0 mm
02:54 AM 70.9°F21.6°C 69.1°F20.6°C 70% 1.2 mph 1.9 kmh 1.2 mph1.9 kmh 30.21 in1023.0 mb 0.00 in0.0 mm 0.00 in0.0 mm 0.00 in0.0 mm
02:57 AM 70.9°F21.6°C 70.1°F21.2°C 71% 4.0 mph 6.4 kmh 4.0 mph6.4 kmh 30.20 in1022.7 mb 0.00 in0.0 mm 0.00 in0.0 mm 0.00 in0.0 mm
03:00 AM 70.7°F21.5°C 69.2°F20.7°C 71% 1.2 mph NW1.9 kmh NW 1.2 mph1.9 kmh 30.21 in1023.0 mb 0.00 in0.0 mm 0.00 in0.0 mm 0.00 in0.0 mm
03:03 AM 70.8°F21.6°C 69.6°F20.9°C 70% Calm Calm -- 30.20 in1022.7 mb 0.00 in0.0 mm 0.00 in0.0 mm 0.00 in0.0 mm
03:06 AM 70.8°F21.6°C 69.1°F20.6°C 70% Calm Calm -- 30.21 in1023.0 mb 0.00 in0.0 mm 0.00 in0.0 mm 0.00 in0.0 mm
03:09 AM 70.9°F21.6°C 69.4°F20.8°C 70% 5.3 mph NNW8.5 kmh NNW 5.3 mph8.5 kmh 30.21 in1023.0 mb 0.00 in0.0 mm 0.00 in0.0 mm 0.00 in0.0 mm
03:15 AM 70.9°F21.6°C 69.0°F20.6°C 72% 4.0 mph NNE6.4 kmh NNE 4.0 mph6.4 kmh 30.22 in1023.4 mb 0.00 in0.0 mm 0.00 in0.0 mm 0.00 in0.0 mm
03:18 AM 71.0°F21.7°C 69.6°F20.9°C 72% 3.6 mph E5.8 kmh E 3.7 mph6.0 kmh 30.21 in1023.0 mb 0.00 in0.0 mm 0.00 in0.0 mm 0.00 in0.0 mm
03:21 AM 70.9°F21.6°C 69.6°F20.9°C 72% 4.0 mph 6.4 kmh 4.0 mph6.4 kmh 30.22 in1023.4 mb 0.00 in0.0 mm 0.00 in0.0 mm 0.00 in0.0 mm
03:30 AM 70.5°F21.4°C 69.5°F20.8°C 72% 8.9 mph NNE14.3 kmh NNE 9.0 mph14.5 kmh 30.22 in1023.4 mb 0.00 in0.0 mm 0.00 in0.0 mm 0.00 in0.0 mm
03:33 AM 70.7°F21.5°C 68.3°F20.2°C 71% 4.0 mph NE6.4 kmh NE 4.1 mph6.6 kmh 30.22 in1023.4 mb 0.00 in0.0 mm 0.00 in0.0 mm 0.00 in0.0 mm
03:36 AM 70.8°F21.6°C 68.8°F20.4°C 72% 6.5 mph NE10.5 kmh NE 6.5 mph10.5 kmh 30.22 in1023.4 mb 0.00 in0.0 mm 0.00 in0.0 mm 0.00 in0.0 mm
03:39 AM 70.6°F21.4°C 69.3°F20.7°C 72% 2.4 mph NNW3.9 kmh NNW 2.4 mph3.9 kmh 30.22 in1023.4 mb 0.00 in0.0 mm 0.00 in0.0 mm 0.00 in0.0 mm
03:42 AM 70.4°F21.3°C 68.5°F20.3°C 72% 2.8 mph NNE4.5 kmh NNE 2.8 mph4.5 kmh 30.22 in1023.4 mb 0.00 in0.0 mm 0.00 in0.0 mm 0.00 in0.0 mm
03:45 AM 70.5°F21.4°C 69.2°F20.7°C 72% 2.0 mph NE3.2 kmh NE 2.0 mph3.2 kmh 30.22 in1023.4 mb 0.00 in0.0 mm 0.00 in0.0 mm 0.00 in0.0 mm
03:48 AM 70.0°F21.1°C 68.9°F20.5°C 72% 2.8 mph 4.5 kmh 2.8 mph4.5 kmh 30.23 in1023.7 mb 0.00 in0.0 mm 0.00 in0.0 mm 0.00 in0.0 mm
03:51 AM 70.1°F21.2°C 69.0°F20.6°C 72% 2.4 mph 3.9 kmh 2.4 mph3.9 kmh 30.23 in1023.7 mb 0.00 in0.0 mm 0.00 in0.0 mm 0.00 in0.0 mm
03:57 AM 69.9°F21.1°C 68.7°F20.4°C 72% 2.8 mph NE4.5 kmh NE 2.8 mph4.5 kmh 30.23 in1023.7 mb 0.00 in0.0 mm 0.00 in0.0 mm 0.00 in0.0 mm
04:00 AM 69.9°F21.1°C 68.7°F20.4°C 71% Calm Calm -- 30.23 in1023.7 mb 0.00 in0.0 mm 0.00 in0.0 mm 0.00 in0.0 mm
04:03 AM 69.8°F21.0°C 68.2°F20.1°C 72% 1.6 mph 2.6 kmh 1.6 mph2.6 kmh 30.22 in1023.4 mb 0.00 in0.0 mm 0.00 in0.0 mm 0.00 in0.0 mm
04:06 AM 69.7°F20.9°C 69.1°F20.6°C 73% 5.6 mph NE9.0 kmh NE 5.7 mph9.2 kmh 30.23 in1023.7 mb 0.00 in0.0 mm 0.00 in0.0 mm 0.00 in0.0 mm
04:09 AM 69.6°F20.9°C 67.9°F19.9°C 72% Calm Calm -- 30.23 in1023.7 mb 0.00 in0.0 mm 0.00 in0.0 mm 0.00 in0.0 mm
04:18 AM 68.9°F20.5°C 68.0°F20.0°C 71% Calm Calm -- 30.23 in1023.7 mb 0.00 in0.0 mm 0.00 in0.0 mm 0.00 in0.0 mm
04:21 AM 69.2°F20.7°C 68.1°F20.1°C 71% 0.4 mph 0.6 kmh 0.4 mph0.6 kmh 30.23 in1023.7 mb 0.00 in0.0 mm 0.00 in0.0 mm 0.00 in0.0 mm
04:24 AM 68.9°F20.5°C 68.0°F20.0°C 71% Calm Calm -- 30.23 in1023.7 mb 0.00 in0.0 mm 0.00 in0.0 mm 0.00 in0.0 mm
04:27 AM 68.7°F20.4°C 68.1°F20.1°C 71% 1.2 mph WSW1.9 kmh WSW 1.2 mph1.9 kmh 30.23 in1023.7 mb 0.00 in0.0 mm 0.00 in0.0 mm 0.00 in0.0 mm
04:30 AM 68.2°F20.1°C 67.4°F19.7°C 71% Calm Calm -- 30.23 in1023.7 mb 0.00 in0.0 mm 0.00 in0.0 mm 0.00 in0.0 mm
04:33 AM 68.6°F20.3°C 68.2°F20.1°C 72% 0.8 mph SE1.3 kmh SE 0.8 mph1.3 kmh 30.22 in1023.4 mb 0.00 in0.0 mm 0.00 in0.0 mm 0.00 in0.0 mm
04:36 AM 69.0°F20.6°C 68.7°F20.4°C 73% 2.0 mph SE3.2 kmh SE 2.0 mph3.2 kmh 30.23 in1023.7 mb 0.00 in0.0 mm 0.00 in0.0 mm 0.00 in0.0 mm
04:39 AM 68.9°F20.5°C 68.1°F20.1°C 74% 1.9 mph SE3.1 kmh SE 2.0 mph3.2 kmh 30.22 in1023.4 mb 0.00 in0.0 mm 0.00 in0.0 mm 0.00 in0.0 mm
04:42 AM 68.7°F20.4°C 68.4°F20.2°C 74% 0.8 mph NNW1.3 kmh NNW 0.8 mph1.3 kmh 30.22 in1023.4 mb 0.00 in0.0 mm 0.00 in0.0 mm 0.00 in0.0 mm
04:45 AM 68.8°F20.4°C 68.2°F20.1°C 73% 1.6 mph SE2.6 kmh SE 1.6 mph2.6 kmh 30.22 in1023.4 mb 0.00 in0.0 mm 0.00 in0.0 mm 0.00 in0.0 mm
04:51 AM 68.6°F20.3°C 67.6°F19.8°C 73% 0.4 mph E0.6 kmh E 0.4 mph0.6 kmh 30.22 in1023.4 mb 0.00 in0.0 mm 0.00 in0.0 mm 0.00 in0.0 mm
04:54 AM 68.5°F20.3°C 67.4°F19.7°C 73% 2.7 mph NNW4.3 kmh NNW 2.7 mph4.3 kmh 30.22 in1023.4 mb 0.00 in0.0 mm 0.00 in0.0 mm 0.00 in0.0 mm
04:57 AM 68.8°F20.4°C 67.6°F19.8°C 73% 1.1 mph SE1.8 kmh SE 1.2 mph1.9 kmh 30.22 in1023.4 mb 0.00 in0.0 mm 0.00 in0.0 mm 0.00 in0.0 mm
05:00 AM 68.8°F20.4°C 68.4°F20.2°C 73% 1.9 mph NNW3.1 kmh NNW 2.0 mph3.2 kmh 30.22 in1023.4 mb 0.00 in0.0 mm 0.00 in0.0 mm 0.00 in0.0 mm
05:03 AM 68.6°F20.3°C 67.4°F19.7°C 73% 2.3 mph E3.7 kmh E 2.3 mph3.7 kmh 30.22 in1023.4 mb 0.00 in0.0 mm 0.00 in0.0 mm 0.00 in0.0 mm
05:06 AM 68.7°F20.4°C 68.3°F20.2°C 73% 1.9 mph SE3.1 kmh SE 1.9 mph3.1 kmh 30.22 in1023.4 mb 0.00 in0.0 mm 0.00 in0.0 mm 0.00 in0.0 mm
05:09 AM 68.7°F20.4°C 67.2°F19.6°C 73% 1.2 mph SE1.9 kmh SE 1.2 mph1.9 kmh 30.23 in1023.7 mb 0.00 in0.0 mm 0.00 in0.0 mm 0.00 in0.0 mm
05:12 AM 68.8°F20.4°C 66.6°F19.2°C 72% 1.6 mph SE2.6 kmh SE 1.6 mph2.6 kmh 30.23 in1023.7 mb 0.00 in0.0 mm 0.00 in0.0 mm 0.00 in0.0 mm
05:15 AM 68.8°F20.4°C 67.5°F19.7°C 72% 0.8 mph SE1.3 kmh SE 0.8 mph1.3 kmh 30.23 in1023.7 mb 0.00 in0.0 mm 0.00 in0.0 mm 0.00 in0.0 mm
05:18 AM 69.2°F20.7°C 67.0°F19.4°C 71% 2.3 mph ESE3.7 kmh ESE 2.3 mph3.7 kmh 30.22 in1023.4 mb 0.00 in0.0 mm 0.00 in0.0 mm 0.00 in0.0 mm
05:21 AM 69.2°F20.7°C 66.7°F19.3°C 71% 3.5 mph E5.6 kmh E 3.5 mph5.6 kmh 30.23 in1023.7 mb 0.00 in0.0 mm 0.00 in0.0 mm 0.00 in0.0 mm
05:24 AM 69.6°F20.9°C 66.5°F19.2°C 71% Calm Calm -- 30.22 in1023.4 mb 0.00 in0.0 mm 0.00 in0.0 mm 0.00 in0.0 mm
05:27 AM 69.7°F20.9°C 66.7°F19.3°C 71% 1.2 mph E1.9 kmh E 1.2 mph1.9 kmh 30.22 in1023.4 mb 0.00 in0.0 mm 0.00 in0.0 mm 0.00 in0.0 mm
05:30 AM 69.8°F21.0°C 66.5°F19.2°C 71% 1.6 mph ESE2.6 kmh ESE 1.6 mph2.6 kmh 30.23 in1023.7 mb 0.00 in0.0 mm 0.00 in0.0 mm 0.00 in0.0 mm
05:33 AM 69.9°F21.1°C 66.5°F19.2°C 71% 0.4 mph NNW0.6 kmh NNW 0.4 mph0.6 kmh 30.23 in1023.7 mb 0.00 in0.0 mm 0.00 in0.0 mm 0.00 in0.0 mm
05:36 AM 70.0°F21.1°C 66.7°F19.3°C 70% 3.2 mph SE5.1 kmh SE 3.2 mph5.1 kmh 30.23 in1023.7 mb 0.00 in0.0 mm 0.00 in0.0 mm 0.00 in0.0 mm
05:39 AM 69.9°F21.1°C 66.1°F18.9°C 69% 2.4 mph SE3.9 kmh SE 2.4 mph3.9 kmh 30.22 in1023.4 mb 0.00 in0.0 mm 0.00 in0.0 mm 0.00 in0.0 mm
05:42 AM 69.9°F21.1°C 67.1°F19.5°C 70% 0.8 mph ESE1.3 kmh ESE 0.8 mph1.3 kmh 30.23 in1023.7 mb 0.00 in0.0 mm 0.00 in0.0 mm 0.00 in0.0 mm
05:45 AM 69.9°F21.1°C 66.5°F19.2°C 69% 1.9 mph SE3.1 kmh SE 1.9 mph3.1 kmh 30.22 in1023.4 mb 0.00 in0.0 mm 0.00 in0.0 mm 0.00 in0.0 mm
05:48 AM 70.9°F21.6°C 66.7°F19.3°C 70% 1.6 mph NNW2.6 kmh NNW 1.6 mph2.6 kmh 30.22 in1023.4 mb 0.00 in0.0 mm 0.00 in0.0 mm 0.00 in0.0 mm
05:51 AM 71.9°F22.2°C 67.6°F19.8°C 70% 1.6 mph ESE2.6 kmh ESE 1.6 mph2.6 kmh 30.23 in1023.7 mb 0.00 in0.0 mm 0.00 in0.0 mm 0.00 in0.0 mm
05:54 AM 73.2°F22.9°C 67.8°F19.9°C 69% 2.4 mph SE3.9 kmh SE 2.4 mph3.9 kmh 30.22 in1023.4 mb 0.00 in0.0 mm 0.00 in0.0 mm 0.00 in0.0 mm
05:57 AM 73.3°F22.9°C 67.6°F19.8°C 68% 2.4 mph SE3.9 kmh SE 2.4 mph3.9 kmh 30.22 in1023.4 mb 0.00 in0.0 mm 0.00 in0.0 mm 0.00 in0.0 mm
06:00 AM 74.0°F23.3°C 67.2°F19.6°C 67% 3.9 mph E6.3 kmh E 3.9 mph6.3 kmh 30.22 in1023.4 mb 0.00 in0.0 mm 0.00 in0.0 mm 0.00 in0.0 mm
06:03 AM 73.9°F23.3°C 67.8°F19.9°C 67% 1.9 mph SE3.1 kmh SE 1.9 mph3.1 kmh 30.22 in1023.4 mb 0.00 in0.0 mm 0.00 in0.0 mm 0.00 in0.0 mm
06:06 AM 74.5°F23.6°C 67.1°F19.5°C 65% 4.4 mph ESE7.1 kmh ESE 4.5 mph7.2 kmh 30.22 in1023.4 mb 0.00 in0.0 mm 0.00 in0.0 mm 0.00 in0.0 mm
06:09 AM 75.1°F23.9°C 67.1°F19.5°C 64% 2.0 mph ESE3.2 kmh ESE 2.0 mph3.2 kmh 30.22 in1023.4 mb 0.00 in0.0 mm 0.00 in0.0 mm 0.00 in0.0 mm
06:15 AM 74.8°F23.8°C 68.0°F20.0°C 64% 0.4 mph NNW0.6 kmh NNW 0.4 mph0.6 kmh 30.22 in1023.4 mb 0.00 in0.0 mm 0.00 in0.0 mm 0.00 in0.0 mm
06:18 AM 74.2°F23.4°C 67.9°F19.9°C 63% 0.4 mph E0.6 kmh E 0.4 mph0.6 kmh 30.22 in1023.4 mb 0.00 in0.0 mm 0.00 in0.0 mm 0.00 in0.0 mm
06:21 AM 75.7°F24.3°C 67.8°F19.9°C 62% 0.4 mph SE0.6 kmh SE 0.4 mph0.6 kmh 30.22 in1023.4 mb 0.00 in0.0 mm 0.00 in0.0 mm 0.00 in0.0 mm
06:24 AM 76.1°F24.5°C 68.4°F20.2°C 61% 1.6 mph ESE2.6 kmh ESE 1.6 mph2.6 kmh 30.22 in1023.4 mb 0.00 in0.0 mm 0.00 in0.0 mm 0.00 in0.0 mm
06:30 AM 75.3°F24.1°C 69.3°F20.7°C 60% Calm Calm -- 30.23 in1023.7 mb 0.00 in0.0 mm 0.00 in0.0 mm 0.00 in0.0 mm
06:33 AM 73.3°F22.9°C 69.6°F20.9°C 59% 2.0 mph NE3.2 kmh NE 2.0 mph3.2 kmh 30.22 in1023.4 mb 0.00 in0.0 mm 0.00 in0.0 mm 0.00 in0.0 mm
06:36 AM 73.4°F23.0°C 69.4°F20.8°C 57% 3.2 mph NNE5.1 kmh NNE 3.3 mph5.3 kmh 30.23 in1023.7 mb 0.00 in0.0 mm 0.00 in0.0 mm 0.00 in0.0 mm
06:39 AM 73.6°F23.1°C 69.2°F20.7°C 57% 2.0 mph NNW3.2 kmh NNW 2.0 mph3.2 kmh 30.23 in1023.7 mb 0.00 in0.0 mm 0.00 in0.0 mm 0.00 in0.0 mm
06:42 AM 74.5°F23.6°C 69.7°F20.9°C 57% 1.6 mph NNW2.6 kmh NNW 1.6 mph2.6 kmh 30.23 in1023.7 mb 0.00 in0.0 mm 0.00 in0.0 mm 0.00 in0.0 mm
06:45 AM 73.7°F23.2°C 69.2°F20.7°C 57% 1.6 mph NE2.6 kmh NE 1.6 mph2.6 kmh 30.23 in1023.7 mb 0.00 in0.0 mm 0.00 in0.0 mm 0.00 in0.0 mm
06:48 AM 77.1°F25.1°C 68.5°F20.3°C 55% 0.8 mph ESE1.3 kmh ESE 0.8 mph1.3 kmh 30.23 in1023.7 mb 0.00 in0.0 mm 0.00 in0.0 mm 0.00 in0.0 mm
06:51 AM 74.2°F23.4°C 69.7°F20.9°C 56% 1.6 mph NE2.6 kmh NE 1.6 mph2.6 kmh 30.23 in1023.7 mb 0.00 in0.0 mm 0.00 in0.0 mm 0.00 in0.0 mm
06:54 AM 74.8°F23.8°C 69.3°F20.7°C 55% 0.4 mph ENE0.6 kmh ENE 0.4 mph0.6 kmh 30.23 in1023.7 mb 0.00 in0.0 mm 0.00 in0.0 mm 0.00 in0.0 mm
06:57 AM 74.4°F23.6°C 69.2°F20.7°C 54% Calm Calm -- 30.23 in1023.7 mb 0.00 in0.0 mm 0.00 in0.0 mm 0.00 in0.0 mm
07:00 AM 75.8°F24.3°C 70.4°F21.3°C 56% 1.2 mph ENE1.9 kmh ENE 1.2 mph1.9 kmh 30.23 in1023.7 mb 0.00 in0.0 mm 0.00 in0.0 mm 0.00 in0.0 mm
07:03 AM 75.8°F24.3°C 69.2°F20.7°C 54% 2.4 mph NNE3.9 kmh NNE 2.4 mph3.9 kmh 30.23 in1023.7 mb 0.00 in0.0 mm 0.00 in0.0 mm 0.00 in0.0 mm
07:06 AM 74.3°F23.5°C 69.5°F20.8°C 54% 0.8 mph NNW1.3 kmh NNW 0.8 mph1.3 kmh 30.23 in1023.7 mb 0.00 in0.0 mm 0.00 in0.0 mm 0.00 in0.0 mm
07:09 AM 75.4°F24.1°C 69.0°F20.6°C 53% 2.7 mph NNW4.3 kmh NNW 2.7 mph4.3 kmh 30.23 in1023.7 mb 0.00 in0.0 mm 0.00 in0.0 mm 0.00 in0.0 mm
07:12 AM 75.3°F24.1°C 70.2°F21.2°C 56% 0.4 mph ESE0.6 kmh ESE 0.4 mph0.6 kmh 30.23 in1023.7 mb 0.00 in0.0 mm 0.00 in0.0 mm 0.00 in0.0 mm
07:15 AM 73.4°F23.0°C 68.6°F20.3°C 53% 4.9 mph NE7.9 kmh NE 4.9 mph7.9 kmh 30.23 in1023.7 mb 0.00 in0.0 mm 0.00 in0.0 mm 0.00 in0.0 mm
07:18 AM 73.5°F23.1°C 69.8°F21.0°C 55% 5.2 mph NE8.4 kmh NE 5.2 mph8.4 kmh 30.23 in1023.7 mb 0.00 in0.0 mm 0.00 in0.0 mm 0.00 in0.0 mm
07:21 AM 72.5°F22.5°C 68.3°F20.2°C 54% 3.2 mph NNW5.1 kmh NNW 3.3 mph5.3 kmh 30.23 in1023.7 mb 0.00 in0.0 mm 0.00 in0.0 mm 0.00 in0.0 mm
07:24 AM 73.1°F22.8°C 69.2°F20.7°C 56% 3.6 mph NE5.8 kmh NE 3.7 mph6.0 kmh 30.23 in1023.7 mb 0.00 in0.0 mm 0.00 in0.0 mm 0.00 in0.0 mm
07:27 AM 73.2°F22.9°C 68.6°F20.3°C 55% 2.0 mph NE3.2 kmh NE 2.0 mph3.2 kmh 30.23 in1023.7 mb 0.00 in0.0 mm 0.00 in0.0 mm 0.00 in0.0 mm
07:30 AM 73.1°F22.8°C 68.8°F20.4°C 55% 1.2 mph NE1.9 kmh NE 1.2 mph1.9 kmh 30.23 in1023.7 mb 0.00 in0.0 mm 0.00 in0.0 mm 0.00 in0.0 mm
07:33 AM 72.7°F22.6°C 67.2°F19.6°C 55% 6.5 mph NNW10.5 kmh NNW 6.6 mph10.6 kmh 30.24 in1024.0 mb 0.00 in0.0 mm 0.00 in0.0 mm 0.00 in0.0 mm
07:36 AM 72.8°F22.7°C 68.4°F20.2°C 56% 5.2 mph NE8.4 kmh NE 5.2 mph8.4 kmh 30.24 in1024.0 mb 0.00 in0.0 mm 0.00 in0.0 mm 0.00 in0.0 mm
07:39 AM 73.6°F23.1°C 68.6°F20.3°C 58% 2.8 mph NNW4.5 kmh NNW 2.8 mph4.5 kmh 30.24 in1024.0 mb 0.00 in0.0 mm 0.00 in0.0 mm 0.00 in0.0 mm
07:42 AM 72.6°F22.6°C 67.0°F19.4°C 56% 4.0 mph 6.4 kmh 4.0 mph6.4 kmh 30.24 in1024.0 mb 0.00 in0.0 mm 0.00 in0.0 mm 0.00 in0.0 mm
07:45 AM 74.0°F23.3°C 67.7°F19.8°C 58% 5.2 mph ESE8.4 kmh ESE 5.3 mph8.5 kmh 30.24 in1024.0 mb 0.00 in0.0 mm 0.00 in0.0 mm 0.00 in0.0 mm
07:48 AM 74.4°F23.6°C 68.4°F20.2°C 59% 5.3 mph NNW8.5 kmh NNW 5.3 mph8.5 kmh 30.24 in1024.0 mb 0.00 in0.0 mm 0.00 in0.0 mm 0.00 in0.0 mm
07:51 AM 74.3°F23.5°C 68.0°F20.0°C 59% 1.6 mph NNW2.6 kmh NNW 1.6 mph2.6 kmh 30.24 in1024.0 mb 0.00 in0.0 mm 0.00 in0.0 mm 0.00 in0.0 mm
07:54 AM 73.4°F23.0°C 67.8°F19.9°C 59% 3.2 mph NE5.1 kmh NE 3.2 mph5.1 kmh 30.24 in1024.0 mb 0.00 in0.0 mm 0.00 in0.0 mm 0.00 in0.0 mm
07:57 AM 72.6°F22.6°C 67.1°F19.5°C 58% 3.2 mph NE5.1 kmh NE 3.2 mph5.1 kmh 30.24 in1024.0 mb 0.00 in0.0 mm 0.00 in0.0 mm 0.00 in0.0 mm
08:00 AM 73.1°F22.8°C 67.7°F19.8°C 60% 4.2 mph NNW6.8 kmh NNW 4.2 mph6.8 kmh 30.24 in1024.0 mb 0.00 in0.0 mm 0.00 in0.0 mm 0.00 in0.0 mm
08:03 AM 73.3°F22.9°C 66.1°F18.9°C 59% 2.0 mph ESE3.2 kmh ESE 2.0 mph3.2 kmh 30.24 in1024.0 mb 0.00 in0.0 mm 0.00 in0.0 mm 0.00 in0.0 mm
08:06 AM 73.4°F23.0°C 67.0°F19.4°C 59% 0.8 mph E1.3 kmh E 0.8 mph1.3 kmh 30.25 in1024.4 mb 0.00 in0.0 mm 0.00 in0.0 mm 0.00 in0.0 mm
08:09 AM 73.4°F23.0°C 66.8°F19.3°C 60% 2.0 mph NNW3.2 kmh NNW 2.0 mph3.2 kmh 30.24 in1024.0 mb 0.00 in0.0 mm 0.00 in0.0 mm 0.00 in0.0 mm
08:12 AM 73.5°F23.1°C 67.0°F19.4°C 60% 0.8 mph E1.3 kmh E 0.8 mph1.3 kmh 30.25 in1024.4 mb 0.00 in0.0 mm 0.00 in0.0 mm 0.00 in0.0 mm
08:15 AM 73.3°F22.9°C 67.2°F19.6°C 60% 4.4 mph NE7.1 kmh NE 4.4 mph7.1 kmh 30.24 in1024.0 mb 0.00 in0.0 mm 0.00 in0.0 mm 0.00 in0.0 mm
08:18 AM 73.1°F22.8°C 66.8°F19.3°C 59% 4.0 mph NNE6.4 kmh NNE 4.0 mph6.4 kmh 30.25 in1024.4 mb 0.00 in0.0 mm 0.00 in0.0 mm 0.00 in0.0 mm
08:21 AM 73.5°F23.1°C 66.3°F19.1°C 60% 4.0 mph NNW6.4 kmh NNW 4.1 mph6.6 kmh 30.25 in1024.4 mb 0.00 in0.0 mm 0.00 in0.0 mm 0.00 in0.0 mm
08:24 AM 73.2°F22.9°C 66.0°F18.9°C 58% 4.4 mph NE7.1 kmh NE 4.5 mph7.2 kmh 30.25 in1024.4 mb 0.00 in0.0 mm 0.00 in0.0 mm 0.00 in0.0 mm
08:27 AM 73.1°F22.8°C 65.9°F18.8°C 58% 0.4 mph ENE0.6 kmh ENE 0.4 mph0.6 kmh 30.25 in1024.4 mb 0.00 in0.0 mm 0.00 in0.0 mm 0.00 in0.0 mm
08:30 AM 73.2°F22.9°C 65.4°F18.6°C 59% 3.2 mph NE5.1 kmh NE 3.3 mph5.3 kmh 30.24 in1024.0 mb 0.00 in0.0 mm 0.00 in0.0 mm 0.00 in0.0 mm
08:33 AM 73.2°F22.9°C 65.8°F18.8°C 59% 0.8 mph ENE1.3 kmh ENE 0.8 mph1.3 kmh 30.24 in1024.0 mb 0.00 in0.0 mm 0.00 in0.0 mm 0.00 in0.0 mm
08:36 AM 73.5°F23.1°C 66.0°F18.9°C 59% 3.6 mph ESE5.8 kmh ESE 3.6 mph5.8 kmh 30.24 in1024.0 mb 0.00 in0.0 mm 0.00 in0.0 mm 0.00 in0.0 mm
08:39 AM 73.6°F23.1°C 65.0°F18.3°C 59% 5.7 mph ESE9.2 kmh ESE 5.7 mph9.2 kmh 30.24 in1024.0 mb 0.00 in0.0 mm 0.00 in0.0 mm 0.00 in0.0 mm
08:42 AM 74.0°F23.3°C 65.0°F18.3°C 58% 6.1 mph SE9.8 kmh SE 6.1 mph9.8 kmh 30.25 in1024.4 mb 0.00 in0.0 mm 0.00 in0.0 mm 0.00 in0.0 mm
08:45 AM 73.7°F23.2°C 65.1°F18.4°C 58% 3.2 mph NNW5.1 kmh NNW 3.3 mph5.3 kmh 30.24 in1024.0 mb 0.00 in0.0 mm 0.00 in0.0 mm 0.00 in0.0 mm
08:48 AM 74.0°F23.3°C 65.0°F18.3°C 58% 7.3 mph NNW11.7 kmh NNW 7.3 mph11.7 kmh 30.25 in1024.4 mb 0.00 in0.0 mm 0.00 in0.0 mm 0.00 in0.0 mm
08:51 AM 73.7°F23.2°C 65.0°F18.3°C 59% 2.0 mph NE3.2 kmh NE 2.0 mph3.2 kmh 30.24 in1024.0 mb 0.00 in0.0 mm 0.00 in0.0 mm 0.00 in0.0 mm
08:54 AM 74.1°F23.4°C 65.0°F18.3°C 58% 4.6 mph NNW7.4 kmh NNW 4.6 mph7.4 kmh 30.25 in1024.4 mb 0.00 in0.0 mm 0.00 in0.0 mm 0.00 in0.0 mm
08:57 AM 74.4°F23.6°C 66.2°F19.0°C 60% 3.1 mph E5.0 kmh E 3.1 mph5.0 kmh 30.25 in1024.4 mb 0.00 in0.0 mm 0.00 in0.0 mm 0.00 in0.0 mm
09:00 AM 74.2°F23.4°C 64.9°F18.3°C 57% 4.2 mph ESE6.8 kmh ESE 4.3 mph6.9 kmh 30.25 in1024.4 mb 0.00 in0.0 mm 0.00 in0.0 mm 0.00 in0.0 mm
09:03 AM 74.2°F23.4°C 64.5°F18.1°C 57% 5.6 mph NE9.0 kmh NE 5.6 mph9.0 kmh 30.25 in1024.4 mb 0.00 in0.0 mm 0.00 in0.0 mm 0.00 in0.0 mm
09:06 AM 74.6°F23.7°C 64.9°F18.3°C 59% 0.8 mph NNW1.3 kmh NNW 0.8 mph1.3 kmh 30.25 in1024.4 mb 0.00 in0.0 mm 0.00 in0.0 mm 0.00 in0.0 mm
09:09 AM 74.9°F23.8°C 65.6°F18.7°C 58% 2.8 mph ESE4.5 kmh ESE 2.8 mph4.5 kmh 30.25 in1024.4 mb 0.00 in0.0 mm 0.00 in0.0 mm 0.00 in0.0 mm
09:12 AM 75.7°F24.3°C 65.6°F18.7°C 60% 4.4 mph NE7.1 kmh NE 4.4 mph7.1 kmh 30.25 in1024.4 mb 0.00 in0.0 mm 0.00 in0.0 mm 0.00 in0.0 mm
09:15 AM 75.0°F23.9°C 63.9°F17.7°C 56% 1.2 mph SE1.9 kmh SE 1.2 mph1.9 kmh 30.24 in1024.0 mb 0.00 in0.0 mm 0.00 in0.0 mm 0.00 in0.0 mm
09:18 AM 75.0°F23.9°C 64.8°F18.2°C 58% 2.4 mph NNW3.9 kmh NNW 2.4 mph3.9 kmh 30.25 in1024.4 mb 0.00 in0.0 mm 0.00 in0.0 mm 0.00 in0.0 mm
09:21 AM 75.2°F24.0°C 64.8°F18.2°C 57% 3.1 mph NE5.0 kmh NE 3.1 mph5.0 kmh 30.24 in1024.0 mb 0.00 in0.0 mm 0.00 in0.0 mm 0.00 in0.0 mm
09:24 AM 75.3°F24.1°C 64.8°F18.2°C 56% 3.4 mph SE5.5 kmh SE 3.6 mph5.8 kmh 30.25 in1024.4 mb 0.00 in0.0 mm 0.00 in0.0 mm 0.00 in0.0 mm
09:27 AM 75.5°F24.2°C 63.4°F17.4°C 55% 3.0 mph ESE4.8 kmh ESE 3.0 mph4.8 kmh 30.24 in1024.0 mb 0.00 in0.0 mm 0.00 in0.0 mm 0.00 in0.0 mm
09:30 AM 76.4°F24.7°C 65.5°F18.6°C 59% 1.1 mph NNW1.8 kmh NNW 1.2 mph1.9 kmh 30.24 in1024.0 mb 0.00 in0.0 mm 0.00 in0.0 mm 0.00 in0.0 mm
09:33 AM 76.2°F24.6°C 64.0°F17.8°C 56% 3.5 mph ESE5.6 kmh ESE 3.5 mph5.6 kmh 30.23 in1023.7 mb 0.00 in0.0 mm 0.00 in0.0 mm 0.00 in0.0 mm
09:36 AM 76.4°F24.7°C 64.3°F17.9°C 55% 4.8 mph SE7.7 kmh SE 4.9 mph7.9 kmh 30.23 in1023.7 mb 0.00 in0.0 mm 0.00 in0.0 mm 0.00 in0.0 mm
09:39 AM 76.2°F24.6°C 64.1°F17.8°C 54% 2.4 mph S3.9 kmh S 2.4 mph3.9 kmh 30.24 in1024.0 mb 0.00 in0.0 mm 0.00 in0.0 mm 0.00 in0.0 mm
09:42 AM 76.8°F24.9°C 64.3°F17.9°C 54% 0.4 mph SSW0.6 kmh SSW 0.4 mph0.6 kmh 30.23 in1023.7 mb 0.00 in0.0 mm 0.00 in0.0 mm 0.00 in0.0 mm
09:45 AM 77.3°F25.2°C 63.6°F17.6°C 54% 0.4 mph S0.6 kmh S 0.4 mph0.6 kmh 30.23 in1023.7 mb 0.00 in0.0 mm 0.00 in0.0 mm 0.00 in0.0 mm
09:48 AM 78.2°F25.7°C 65.3°F18.5°C 55% 7.6 mph SE12.2 kmh SE 7.6 mph12.2 kmh 30.23 in1023.7 mb 0.00 in0.0 mm 0.00 in0.0 mm 0.00 in0.0 mm
09:51 AM 78.2°F25.7°C 65.6°F18.7°C 55% 2.3 mph NNW3.7 kmh NNW 2.3 mph3.7 kmh 30.23 in1023.7 mb 0.00 in0.0 mm 0.00 in0.0 mm 0.00 in0.0 mm
09:54 AM 78.5°F25.8°C 65.7°F18.7°C 55% 1.6 mph ENE2.6 kmh ENE 1.6 mph2.6 kmh 30.23 in1023.7 mb 0.00 in0.0 mm 0.00 in0.0 mm 0.00 in0.0 mm
09:57 AM 78.0°F25.6°C 65.8°F18.8°C 54% 2.0 mph NE3.2 kmh NE 2.0 mph3.2 kmh 30.23 in1023.7 mb 0.00 in0.0 mm 0.00 in0.0 mm 0.00 in0.0 mm
10:00 AM 78.1°F25.6°C 64.9°F18.3°C 52% 4.4 mph NE7.1 kmh NE 4.5 mph7.2 kmh 30.23 in1023.7 mb 0.00 in0.0 mm 0.00 in0.0 mm 0.00 in0.0 mm
10:03 AM 78.8°F26.0°C 66.2°F19.0°C 55% 2.4 mph ENE3.9 kmh ENE 2.4 mph3.9 kmh 30.23 in1023.7 mb 0.00 in0.0 mm 0.00 in0.0 mm 0.00 in0.0 mm
10:06 AM 79.0°F26.1°C 64.6°F18.1°C 50% 0.4 mph ESE0.6 kmh ESE 0.4 mph0.6 kmh 30.23 in1023.7 mb 0.00 in0.0 mm 0.00 in0.0 mm 0.00 in0.0 mm
10:09 AM 78.9°F26.1°C 63.3°F17.4°C 47% 2.4 mph NNW3.9 kmh NNW 2.4 mph3.9 kmh 30.23 in1023.7 mb 0.00 in0.0 mm 0.00 in0.0 mm 0.00 in0.0 mm
10:12 AM 79.3°F26.3°C 63.2°F17.3°C 47% 1.9 mph 3.1 kmh 1.9 mph3.1 kmh 30.23 in1023.7 mb 0.00 in0.0 mm 0.00 in0.0 mm 0.00 in0.0 mm
10:15 AM 79.0°F26.1°C 62.7°F17.1°C 47% 3.6 mph 5.8 kmh 3.7 mph6.0 kmh 30.23 in1023.7 mb 0.00 in0.0 mm 0.00 in0.0 mm 0.00 in0.0 mm
10:18 AM 78.5°F25.8°C 62.6°F17.0°C 44% 2.8 mph NE4.5 kmh NE 2.8 mph4.5 kmh 30.23 in1023.7 mb 0.00 in0.0 mm 0.00 in0.0 mm 0.00 in0.0 mm
10:21 AM 79.5°F26.4°C 64.5°F18.1°C 48% 0.8 mph NNW1.3 kmh NNW 0.8 mph1.3 kmh 30.23 in1023.7 mb 0.00 in0.0 mm 0.00 in0.0 mm 0.00 in0.0 mm
10:24 AM 79.3°F26.3°C 64.1°F17.8°C 47% 6.1 mph ENE9.8 kmh ENE 6.1 mph9.8 kmh 30.23 in1023.7 mb 0.00 in0.0 mm 0.00 in0.0 mm 0.00 in0.0 mm
10:27 AM 79.1°F26.2°C 63.5°F17.5°C 46% 5.3 mph NNW8.5 kmh NNW 5.3 mph8.5 kmh 30.23 in1023.7 mb 0.00 in0.0 mm 0.00 in0.0 mm 0.00 in0.0 mm
10:30 AM 78.9°F26.1°C 64.2°F17.9°C 46% 2.8 mph E4.5 kmh E 2.8 mph4.5 kmh 30.23 in1023.7 mb 0.00 in0.0 mm 0.00 in0.0 mm 0.00 in0.0 mm
10:33 AM 78.9°F26.1°C 62.2°F16.8°C 44% 6.4 mph NNW10.3 kmh NNW 6.4 mph10.3 kmh 30.23 in1023.7 mb 0.00 in0.0 mm 0.00 in0.0 mm 0.00 in0.0 mm
10:36 AM 79.5°F26.4°C 65.1°F18.4°C 46% 4.5 mph ENE7.2 kmh ENE 4.5 mph7.2 kmh 30.23 in1023.7 mb 0.00 in0.0 mm 0.00 in0.0 mm 0.00 in0.0 mm
10:39 AM 79.6°F26.4°C 64.8°F18.2°C 46% 6.1 mph NE9.8 kmh NE 6.1 mph9.8 kmh 30.23 in1023.7 mb 0.00 in0.0 mm 0.00 in0.0 mm 0.00 in0.0 mm
10:42 AM 80.2°F26.8°C 66.5°F19.2°C 48% 4.9 mph NE7.9 kmh NE 4.9 mph7.9 kmh 30.23 in1023.7 mb 0.00 in0.0 mm 0.00 in0.0 mm 0.00 in0.0 mm
10:45 AM 79.8°F26.6°C 64.4°F18.0°C 44% 5.2 mph NE8.4 kmh NE 5.2 mph8.4 kmh 30.23 in1023.7 mb 0.00 in0.0 mm 0.00 in0.0 mm 0.00 in0.0 mm
10:48 AM 80.4°F26.9°C 63.9°F17.7°C 43% 4.5 mph NNW7.2 kmh NNW 4.5 mph7.2 kmh 30.23 in1023.7 mb 0.00 in0.0 mm 0.00 in0.0 mm 0.00 in0.0 mm
10:51 AM 80.3°F26.8°C 63.8°F17.7°C 43% 9.7 mph NE15.6 kmh NE 9.8 mph15.8 kmh 30.23 in1023.7 mb 0.00 in0.0 mm 0.00 in0.0 mm 0.00 in0.0 mm
10:54 AM 79.9°F26.6°C 63.7°F17.6°C 43% 0.8 mph E1.3 kmh E 0.8 mph1.3 kmh 30.23 in1023.7 mb 0.00 in0.0 mm 0.00 in0.0 mm 0.00 in0.0 mm
10:57 AM 79.8°F26.6°C 63.4°F17.4°C 41% 0.4 mph ENE0.6 kmh ENE 0.4 mph0.6 kmh 30.23 in1023.7 mb 0.00 in0.0 mm 0.00 in0.0 mm 0.00 in0.0 mm
11:00 AM 79.7°F26.5°C 64.7°F18.2°C 42% Calm Calm -- 30.23 in1023.7 mb 0.00 in0.0 mm 0.00 in0.0 mm 0.00 in0.0 mm
11:03 AM 80.6°F27.0°C 63.4°F17.4°C 40% 3.2 mph 5.1 kmh 3.2 mph5.1 kmh 30.23 in1023.7 mb 0.00 in0.0 mm 0.00 in0.0 mm 0.00 in0.0 mm
11:06 AM 80.0°F26.7°C 63.5°F17.5°C 41% 2.0 mph ENE3.2 kmh ENE 2.0 mph3.2 kmh 30.23 in1023.7 mb 0.00 in0.0 mm 0.00 in0.0 mm 0.00 in0.0 mm
11:09 AM 80.4°F26.9°C 63.5°F17.5°C 40% 1.2 mph ENE1.9 kmh ENE 1.2 mph1.9 kmh 30.23 in1023.7 mb 0.00 in0.0 mm 0.00 in0.0 mm 0.00 in0.0 mm
11:12 AM 80.2°F26.8°C 62.4°F16.9°C 38% 0.8 mph ENE1.3 kmh ENE 0.8 mph1.3 kmh 30.23 in1023.7 mb 0.00 in0.0 mm 0.00 in0.0 mm 0.00 in0.0 mm
11:15 AM 80.0°F26.7°C 63.3°F17.4°C 39% Calm Calm -- 30.23 in1023.7 mb 0.00 in0.0 mm 0.00 in0.0 mm 0.00 in0.0 mm
11:18 AM 80.4°F26.9°C 63.5°F17.5°C 39% 1.5 mph E2.4 kmh E 1.6 mph2.6 kmh 30.23 in1023.7 mb 0.00 in0.0 mm 0.00 in0.0 mm 0.00 in0.0 mm
11:21 AM 80.5°F26.9°C 64.0°F17.8°C 39% 1.9 mph NNW3.1 kmh NNW 1.9 mph3.1 kmh 30.23 in1023.7 mb 0.00 in0.0 mm 0.00 in0.0 mm 0.00 in0.0 mm
11:24 AM 80.6°F27.0°C 62.7°F17.1°C 37% 0.8 mph NE1.3 kmh NE 0.8 mph1.3 kmh 30.23 in1023.7 mb 0.00 in0.0 mm 0.00 in0.0 mm 0.00 in0.0 mm
11:27 AM 81.1°F27.3°C 62.5°F16.9°C 36% 6.1 mph NNW9.8 kmh NNW 6.1 mph9.8 kmh 30.23 in1023.7 mb 0.00 in0.0 mm 0.00 in0.0 mm 0.00 in0.0 mm
11:30 AM 80.6°F27.0°C 58.7°F14.8°C 32% 1.6 mph E2.6 kmh E 1.6 mph2.6 kmh 30.23 in1023.7 mb 0.00 in0.0 mm 0.00 in0.0 mm 0.00 in0.0 mm
11:33 AM 81.6°F27.6°C 64.6°F18.1°C 39% 2.8 mph NE4.5 kmh NE 2.8 mph4.5 kmh 30.23 in1023.7 mb 0.00 in0.0 mm 0.00 in0.0 mm 0.00 in0.0 mm
11:36 AM 80.6°F27.0°C 62.9°F17.2°C 37% 4.8 mph NE7.7 kmh NE 4.8 mph7.7 kmh 30.23 in1023.7 mb 0.00 in0.0 mm 0.00 in0.0 mm 0.00 in0.0 mm
11:39 AM 81.1°F27.3°C 63.7°F17.6°C 37% 0.8 mph NE1.3 kmh NE 0.8 mph1.3 kmh 30.23 in1023.7 mb 0.00 in0.0 mm 0.00 in0.0 mm 0.00 in0.0 mm
11:42 AM 81.7°F27.6°C 64.2°F17.9°C 38% 2.4 mph ESE3.9 kmh ESE 2.4 mph3.9 kmh 30.23 in1023.7 mb 0.00 in0.0 mm 0.00 in0.0 mm 0.00 in0.0 mm
11:45 AM 81.5°F27.5°C 62.3°F16.8°C 35% 7.3 mph NE11.7 kmh NE 7.3 mph11.7 kmh 30.23 in1023.7 mb 0.00 in0.0 mm 0.00 in0.0 mm 0.00 in0.0 mm
11:48 AM 81.7°F27.6°C 62.7°F17.1°C 36% 1.2 mph NNW1.9 kmh NNW 1.2 mph1.9 kmh 30.23 in1023.7 mb 0.00 in0.0 mm 0.00 in0.0 mm 0.00 in0.0 mm
11:51 AM 81.3°F27.4°C 62.7°F17.1°C 35% 2.0 mph NE3.2 kmh NE 2.0 mph3.2 kmh 30.23 in1023.7 mb 0.00 in0.0 mm 0.00 in0.0 mm 0.00 in0.0 mm
11:54 AM 81.5°F27.5°C 63.0°F17.2°C 35% 1.5 mph NNW2.4 kmh NNW 1.5 mph2.4 kmh 30.23 in1023.7 mb 0.00 in0.0 mm 0.00 in0.0 mm 0.00 in0.0 mm
11:57 AM 81.7°F27.6°C 64.0°F17.8°C 36% 3.4 mph NE5.5 kmh NE 3.5 mph5.6 kmh 30.23 in1023.7 mb 0.00 in0.0 mm 0.00 in0.0 mm 0.00 in0.0 mm
12:00 PM 82.5°F28.1°C 64.1°F17.8°C 36% 1.6 mph ENE2.6 kmh ENE 1.6 mph2.6 kmh 30.23 in1023.7 mb 0.00 in0.0 mm 0.00 in0.0 mm 0.00 in0.0 mm
12:03 PM 81.4°F27.4°C 61.2°F16.2°C 33% 6.1 mph NE9.8 kmh NE 6.1 mph9.8 kmh 30.23 in1023.7 mb 0.00 in0.0 mm 0.00 in0.0 mm 0.00 in0.0 mm
12:06 PM 81.5°F27.5°C 60.5°F15.8°C 32% 5.2 mph NE8.4 kmh NE 5.2 mph8.4 kmh 30.22 in1023.4 mb 0.00 in0.0 mm 0.00 in0.0 mm 0.00 in0.0 mm
12:09 PM 82.0°F27.8°C 61.4°F16.3°C 33% 5.2 mph 8.4 kmh 5.3 mph8.5 kmh 30.23 in1023.7 mb 0.00 in0.0 mm 0.00 in0.0 mm 0.00 in0.0 mm
12:12 PM 82.9°F28.3°C 60.8°F16.0°C 32% 3.2 mph WNW5.1 kmh WNW 3.3 mph5.3 kmh 30.23 in1023.7 mb 0.00 in0.0 mm 0.00 in0.0 mm 0.00 in0.0 mm
12:15 PM 82.7°F28.2°C 60.5°F15.8°C 31% 4.4 mph 7.1 kmh 4.4 mph7.1 kmh 30.23 in1023.7 mb 0.00 in0.0 mm 0.00 in0.0 mm 0.00 in0.0 mm
12:18 PM 82.3°F27.9°C 60.7°F15.9°C 32% 3.2 mph SE5.1 kmh SE 3.2 mph5.1 kmh 30.22 in1023.4 mb 0.00 in0.0 mm 0.00 in0.0 mm 0.00 in0.0 mm
12:21 PM 82.3°F27.9°C 60.1°F15.6°C 31% 2.3 mph ENE3.7 kmh ENE 2.4 mph3.9 kmh 30.22 in1023.4 mb 0.00 in0.0 mm 0.00 in0.0 mm 0.00 in0.0 mm
12:24 PM 82.7°F28.2°C 63.5°F17.5°C 35% 6.4 mph NE10.3 kmh NE 6.4 mph10.3 kmh 30.22 in1023.4 mb 0.00 in0.0 mm 0.00 in0.0 mm 0.00 in0.0 mm
12:27 PM 81.6°F27.6°C 58.6°F14.8°C 30% 7.2 mph NE11.6 kmh NE 7.2 mph11.6 kmh 30.22 in1023.4 mb 0.00 in0.0 mm 0.00 in0.0 mm 0.00 in0.0 mm
12:30 PM 82.4°F28.0°C 61.5°F16.4°C 33% 2.4 mph E3.9 kmh E 2.4 mph3.9 kmh 30.22 in1023.4 mb 0.00 in0.0 mm 0.00 in0.0 mm 0.00 in0.0 mm
12:33 PM 82.9°F28.3°C 62.4°F16.9°C 34% 1.6 mph E2.6 kmh E 1.6 mph2.6 kmh 30.22 in1023.4 mb 0.00 in0.0 mm 0.00 in0.0 mm 0.00 in0.0 mm
12:36 PM 82.9°F28.3°C 62.2°F16.8°C 33% 5.3 mph ESE8.5 kmh ESE 5.3 mph8.5 kmh 30.22 in1023.4 mb 0.00 in0.0 mm 0.00 in0.0 mm 0.00 in0.0 mm
12:39 PM 83.1°F28.4°C 62.8°F17.1°C 33% 2.4 mph NNW3.9 kmh NNW 2.4 mph3.9 kmh 30.22 in1023.4 mb 0.00 in0.0 mm 0.00 in0.0 mm 0.00 in0.0 mm
12:42 PM 84.0°F28.9°C 60.3°F15.7°C 30% 9.7 mph 15.6 kmh 9.7 mph15.6 kmh 30.22 in1023.4 mb 0.00 in0.0 mm 0.00 in0.0 mm 0.00 in0.0 mm
12:45 PM 82.3°F27.9°C 61.4°F16.3°C 32% 2.4 mph NNE3.9 kmh NNE 2.4 mph3.9 kmh 30.22 in1023.4 mb 0.00 in0.0 mm 0.00 in0.0 mm 0.00 in0.0 mm
12:48 PM 82.7°F28.2°C 60.6°F15.9°C 31% 1.6 mph SE2.6 kmh SE 1.6 mph2.6 kmh 30.22 in1023.4 mb 0.00 in0.0 mm 0.00 in0.0 mm 0.00 in0.0 mm
12:51 PM 83.1°F28.4°C 61.3°F16.3°C 32% 0.8 mph ENE1.3 kmh ENE 0.8 mph1.3 kmh 30.22 in1023.4 mb 0.00 in0.0 mm 0.00 in0.0 mm 0.00 in0.0 mm
12:54 PM 83.2°F28.4°C 61.0°F16.1°C 31% 3.6 mph NNW5.8 kmh NNW 3.7 mph6.0 kmh 30.22 in1023.4 mb 0.00 in0.0 mm 0.00 in0.0 mm 0.00 in0.0 mm
12:57 PM 82.9°F28.3°C 60.5°F15.8°C 31% 2.8 mph ENE4.5 kmh ENE 2.8 mph4.5 kmh 30.22 in1023.4 mb 0.00 in0.0 mm 0.00 in0.0 mm 0.00 in0.0 mm
01:00 PM 82.2°F27.9°C 60.1°F15.6°C 30% 3.2 mph NNW5.1 kmh NNW 3.2 mph5.1 kmh 30.22 in1023.4 mb 0.00 in0.0 mm 0.00 in0.0 mm 0.00 in0.0 mm
01:03 PM 82.6°F28.1°C 62.6°F17.0°C 33% 5.0 mph NE8.0 kmh NE 5.1 mph8.2 kmh 30.22 in1023.4 mb 0.00 in0.0 mm 0.00 in0.0 mm 0.00 in0.0 mm
01:09 PM 83.3°F28.5°C 63.2°F17.3°C 34% 2.0 mph NE3.2 kmh NE 2.0 mph3.2 kmh 30.22 in1023.4 mb 0.00 in0.0 mm 0.00 in0.0 mm 0.00 in0.0 mm
01:12 PM 83.4°F28.6°C 64.1°F17.8°C 34% 3.2 mph NNW5.1 kmh NNW 3.3 mph5.3 kmh 30.22 in1023.4 mb 0.00 in0.0 mm 0.00 in0.0 mm 0.00 in0.0 mm
01:15 PM 83.5°F28.6°C 63.5°F17.5°C 34% 1.2 mph E1.9 kmh E 1.2 mph1.9 kmh 30.22 in1023.4 mb 0.00 in0.0 mm 0.00 in0.0 mm 0.00 in0.0 mm
01:18 PM 83.5°F28.6°C 63.7°F17.6°C 34% 1.6 mph E2.6 kmh E 1.6 mph2.6 kmh 30.22 in1023.4 mb 0.00 in0.0 mm 0.00 in0.0 mm 0.00 in0.0 mm
01:24 PM 83.4°F28.6°C 62.6°F17.0°C 32% 2.4 mph E3.9 kmh E 2.4 mph3.9 kmh 30.21 in1023.0 mb 0.00 in0.0 mm 0.00 in0.0 mm 0.00 in0.0 mm
01:27 PM 83.9°F28.8°C 62.6°F17.0°C 32% 2.0 mph NNW3.2 kmh NNW 2.0 mph3.2 kmh 30.21 in1023.0 mb 0.00 in0.0 mm 0.00 in0.0 mm 0.00 in0.0 mm
01:30 PM 83.5°F28.6°C 62.1°F16.7°C 32% 4.0 mph NNW6.4 kmh NNW 4.0 mph6.4 kmh 30.21 in1023.0 mb 0.00 in0.0 mm 0.00 in0.0 mm 0.00 in0.0 mm
01:33 PM 83.2°F28.4°C 61.7°F16.5°C 31% 1.2 mph NE1.9 kmh NE 1.2 mph1.9 kmh 30.21 in1023.0 mb 0.00 in0.0 mm 0.00 in0.0 mm 0.00 in0.0 mm
01:39 PM 84.0°F28.9°C 63.4°F17.4°C 33% 0.4 mph NNW0.6 kmh NNW 0.4 mph0.6 kmh 30.20 in1022.7 mb 0.00 in0.0 mm 0.00 in0.0 mm 0.00 in0.0 mm
01:42 PM 84.0°F28.9°C 59.9°F15.5°C 29% 10.5 mph NNE16.9 kmh NNE 10.6 mph17.1 kmh 30.21 in1023.0 mb 0.00 in0.0 mm 0.00 in0.0 mm 0.00 in0.0 mm
01:45 PM 83.1°F28.4°C 59.1°F15.1°C 29% 5.9 mph NE9.5 kmh NE 6.0 mph9.7 kmh 30.20 in1022.7 mb 0.00 in0.0 mm 0.00 in0.0 mm 0.00 in0.0 mm
01:48 PM 83.9°F28.8°C 60.0°F15.6°C 30% 3.6 mph NNW5.8 kmh NNW 3.7 mph6.0 kmh 30.21 in1023.0 mb 0.00 in0.0 mm 0.00 in0.0 mm 0.00 in0.0 mm
01:51 PM 84.2°F29.0°C 59.7°F15.4°C 29% 4.8 mph NNW7.7 kmh NNW 4.9 mph7.9 kmh 30.20 in1022.7 mb 0.00 in0.0 mm 0.00 in0.0 mm 0.00 in0.0 mm
01:54 PM 84.1°F28.9°C 62.8°F17.1°C 33% 5.3 mph 8.5 kmh 5.3 mph8.5 kmh 30.20 in1022.7 mb 0.00 in0.0 mm 0.00 in0.0 mm 0.00 in0.0 mm
01:57 PM 83.8°F28.8°C 60.7°F15.9°C 30% 5.3 mph NE8.5 kmh NE 5.3 mph8.5 kmh 30.20 in1022.7 mb 0.00 in0.0 mm 0.00 in0.0 mm 0.00 in0.0 mm
02:00 PM 84.7°F29.3°C 58.6°F14.8°C 28% 6.1 mph 9.8 kmh 6.1 mph9.8 kmh 30.20 in1022.7 mb 0.00 in0.0 mm 0.00 in0.0 mm 0.00 in0.0 mm
02:03 PM 84.7°F29.3°C 58.9°F14.9°C 28% 6.8 mph 10.9 kmh 6.8 mph10.9 kmh 30.20 in1022.7 mb 0.00 in0.0 mm 0.00 in0.0 mm 0.00 in0.0 mm
02:06 PM 84.5°F29.2°C 57.5°F14.2°C 28% 6.9 mph NNW11.1 kmh NNW 6.9 mph11.1 kmh 30.20 in1022.7 mb 0.00 in0.0 mm 0.00 in0.0 mm 0.00 in0.0 mm
02:09 PM 84.7°F29.3°C 60.7°F15.9°C 30% 1.2 mph NNW1.9 kmh NNW 1.2 mph1.9 kmh 30.20 in1022.7 mb 0.00 in0.0 mm 0.00 in0.0 mm 0.00 in0.0 mm
02:12 PM 84.3°F29.1°C 60.0°F15.6°C 30% 2.4 mph ESE3.9 kmh ESE 2.4 mph3.9 kmh 30.20 in1022.7 mb 0.00 in0.0 mm 0.00 in0.0 mm 0.00 in0.0 mm
02:15 PM 84.7°F29.3°C 60.8°F16.0°C 30% 3.2 mph NNW5.1 kmh NNW 3.2 mph5.1 kmh 30.20 in1022.7 mb 0.00 in0.0 mm 0.00 in0.0 mm 0.00 in0.0 mm
02:18 PM 85.2°F29.6°C 61.8°F16.6°C 31% 4.8 mph NE7.7 kmh NE 4.9 mph7.9 kmh 30.20 in1022.7 mb 0.00 in0.0 mm 0.00 in0.0 mm 0.00 in0.0 mm
02:21 PM 84.4°F29.1°C 62.5°F16.9°C 32% 1.6 mph NNW2.6 kmh NNW 1.6 mph2.6 kmh 30.20 in1022.7 mb 0.00 in0.0 mm 0.00 in0.0 mm 0.00 in0.0 mm
02:24 PM 84.8°F29.3°C 62.9°F17.2°C 33% 3.2 mph ESE5.1 kmh ESE 3.3 mph5.3 kmh 30.20 in1022.7 mb 0.00 in0.0 mm 0.00 in0.0 mm 0.00 in0.0 mm
02:27 PM 84.3°F29.1°C 62.9°F17.2°C 33% 5.6 mph ENE9.0 kmh ENE 5.7 mph9.2 kmh 30.20 in1022.7 mb 0.00 in0.0 mm 0.00 in0.0 mm 0.00 in0.0 mm
02:30 PM 84.2°F29.0°C 63.0°F17.2°C 33% 6.0 mph NE9.7 kmh NE 6.1 mph9.8 kmh 30.20 in1022.7 mb 0.00 in0.0 mm 0.00 in0.0 mm 0.00 in0.0 mm
02:33 PM 84.1°F28.9°C 61.8°F16.6°C 32% 9.9 mph NE15.9 kmh NE 10.0 mph16.1 kmh 30.20 in1022.7 mb 0.00 in0.0 mm 0.00 in0.0 mm 0.00 in0.0 mm
02:36 PM 84.3°F29.1°C 62.0°F16.7°C 32% 1.2 mph E1.9 kmh E 1.2 mph1.9 kmh 30.20 in1022.7 mb 0.00 in0.0 mm 0.00 in0.0 mm 0.00 in0.0 mm
02:39 PM 84.4°F29.1°C 61.3°F16.3°C 31% 1.6 mph E2.6 kmh E 1.6 mph2.6 kmh 30.20 in1022.7 mb 0.00 in0.0 mm 0.00 in0.0 mm 0.00 in0.0 mm
02:45 PM 83.9°F28.8°C 57.4°F14.1°C 27% 3.4 mph NNW5.5 kmh NNW 3.4 mph5.5 kmh 30.20 in1022.7 mb 0.00 in0.0 mm 0.00 in0.0 mm 0.00 in0.0 mm
02:51 PM 84.7°F29.3°C 62.8°F17.1°C 33% 5.3 mph NNW8.5 kmh NNW 5.3 mph8.5 kmh 30.20 in1022.7 mb 0.00 in0.0 mm 0.00 in0.0 mm 0.00 in0.0 mm
02:54 PM 84.0°F28.9°C 60.8°F16.0°C 31% 5.4 mph NNW8.7 kmh NNW 5.4 mph8.7 kmh 30.20 in1022.7 mb 0.00 in0.0 mm 0.00 in0.0 mm 0.00 in0.0 mm
02:57 PM 83.8°F28.8°C 58.8°F14.9°C 29% 11.2 mph NNW18.0 kmh NNW 11.2 mph18.0 kmh 30.20 in1022.7 mb 0.00 in0.0 mm 0.00 in0.0 mm 0.00 in0.0 mm
03:00 PM 83.5°F28.6°C 58.3°F14.6°C 29% 7.6 mph NNW12.2 kmh NNW 7.7 mph12.4 kmh 30.20 in1022.7 mb 0.00 in0.0 mm 0.00 in0.0 mm 0.00 in0.0 mm
03:03 PM 84.0°F28.9°C 58.6°F14.8°C 29% 2.8 mph NE4.5 kmh NE 2.8 mph4.5 kmh 30.20 in1022.7 mb 0.00 in0.0 mm 0.00 in0.0 mm 0.00 in0.0 mm
03:06 PM 83.3°F28.5°C 57.8°F14.3°C 29% 6.4 mph NE10.3 kmh NE 6.4 mph10.3 kmh 30.20 in1022.7 mb 0.00 in0.0 mm 0.00 in0.0 mm 0.00 in0.0 mm
03:09 PM 83.9°F28.8°C 58.7°F14.8°C 30% 2.0 mph NE3.2 kmh NE 2.0 mph3.2 kmh 30.20 in1022.7 mb 0.00 in0.0 mm 0.00 in0.0 mm 0.00 in0.0 mm
03:12 PM 83.9°F28.8°C 57.6°F14.2°C 28% 5.7 mph NE9.2 kmh NE 5.7 mph9.2 kmh 30.20 in1022.7 mb 0.00 in0.0 mm 0.00 in0.0 mm 0.00 in0.0 mm
03:15 PM 84.3°F29.1°C 59.6°F15.3°C 30% 4.0 mph NNW6.4 kmh NNW 4.1 mph6.6 kmh 30.20 in1022.7 mb 0.00 in0.0 mm 0.00 in0.0 mm 0.00 in0.0 mm
03:18 PM 84.0°F28.9°C 56.8°F13.8°C 27% 8.3 mph NNW13.4 kmh NNW 8.4 mph13.5 kmh 30.20 in1022.7 mb 0.00 in0.0 mm 0.00 in0.0 mm 0.00 in0.0 mm
03:21 PM 83.6°F28.7°C 56.4°F13.6°C 27% 6.0 mph NNE9.7 kmh NNE 6.0 mph9.7 kmh 30.20 in1022.7 mb 0.00 in0.0 mm 0.00 in0.0 mm 0.00 in0.0 mm
03:24 PM 83.1°F28.4°C 56.0°F13.3°C 27% 6.0 mph NE9.7 kmh NE 6.0 mph9.7 kmh 30.20 in1022.7 mb 0.00 in0.0 mm 0.00 in0.0 mm 0.00 in0.0 mm
03:27 PM 83.2°F28.4°C 56.3°F13.5°C 28% 6.5 mph NE10.5 kmh NE 6.5 mph10.5 kmh 30.20 in1022.7 mb 0.00 in0.0 mm 0.00 in0.0 mm 0.00 in0.0 mm
03:30 PM 85.0°F29.4°C 58.3°F14.6°C 30% 1.2 mph ENE1.9 kmh ENE 1.2 mph1.9 kmh 30.20 in1022.7 mb 0.00 in0.0 mm 0.00 in0.0 mm 0.00 in0.0 mm
03:33 PM 85.3°F29.6°C 58.8°F14.9°C 30% 9.3 mph NE15.0 kmh NE 9.4 mph15.1 kmh 30.20 in1022.7 mb 0.00 in0.0 mm 0.00 in0.0 mm 0.00 in0.0 mm
03:36 PM 85.1°F29.5°C 56.2°F13.4°C 27% 3.2 mph E5.1 kmh E 3.2 mph5.1 kmh 30.20 in1022.7 mb 0.00 in0.0 mm 0.00 in0.0 mm 0.00 in0.0 mm
03:39 PM 85.3°F29.6°C 55.7°F13.2°C 27% 2.4 mph E3.9 kmh E 2.4 mph3.9 kmh 30.20 in1022.7 mb 0.00 in0.0 mm 0.00 in0.0 mm 0.00 in0.0 mm
03:45 PM 84.3°F29.1°C 55.8°F13.2°C 26% 3.1 mph NNW5.0 kmh NNW 3.2 mph5.1 kmh 30.20 in1022.7 mb 0.00 in0.0 mm 0.00 in0.0 mm 0.00 in0.0 mm
03:48 PM 85.9°F29.9°C 54.0°F12.2°C 25% 2.7 mph NNW4.3 kmh NNW 2.8 mph4.5 kmh 30.20 in1022.7 mb 0.00 in0.0 mm 0.00 in0.0 mm 0.00 in0.0 mm
03:51 PM 85.8°F29.9°C 55.4°F13.0°C 26% 8.1 mph NNE13.0 kmh NNE 8.1 mph13.0 kmh 30.20 in1022.7 mb 0.00 in0.0 mm 0.00 in0.0 mm 0.00 in0.0 mm
03:57 PM 85.2°F29.6°C 51.4°F10.8°C 23% 7.6 mph NE12.2 kmh NE 7.6 mph12.2 kmh 30.20 in1022.7 mb 0.00 in0.0 mm 0.00 in0.0 mm 0.00 in0.0 mm
04:00 PM 85.3°F29.6°C 53.7°F12.1°C 25% 2.4 mph ENE3.9 kmh ENE 2.4 mph3.9 kmh 30.20 in1022.7 mb 0.00 in0.0 mm 0.00 in0.0 mm 0.00 in0.0 mm
04:03 PM 84.8°F29.3°C 51.4°F10.8°C 24% 5.6 mph NE9.0 kmh NE 5.6 mph9.0 kmh 30.20 in1022.7 mb 0.00 in0.0 mm 0.00 in0.0 mm 0.00 in0.0 mm
04:06 PM 86.6°F30.3°C 54.1°F12.3°C 26% 2.0 mph ENE3.2 kmh ENE 2.0 mph3.2 kmh 30.19 in1022.4 mb 0.00 in0.0 mm 0.00 in0.0 mm 0.00 in0.0 mm
04:09 PM 85.9°F29.9°C 52.9°F11.6°C 25% 4.0 mph ENE6.4 kmh ENE 4.0 mph6.4 kmh 30.20 in1022.7 mb 0.00 in0.0 mm 0.00 in0.0 mm 0.00 in0.0 mm
04:12 PM 87.4°F30.8°C 54.8°F12.7°C 26% 2.8 mph ESE4.5 kmh ESE 2.8 mph4.5 kmh 30.20 in1022.7 mb 0.00 in0.0 mm 0.00 in0.0 mm 0.00 in0.0 mm
04:15 PM 84.3°F29.1°C 51.9°F11.1°C 24% 5.2 mph NE8.4 kmh NE 5.2 mph8.4 kmh 30.20 in1022.7 mb 0.00 in0.0 mm 0.00 in0.0 mm 0.00 in0.0 mm
04:18 PM 86.6°F30.3°C 54.3°F12.4°C 26% 2.0 mph NE3.2 kmh NE 2.0 mph3.2 kmh 30.19 in1022.4 mb 0.00 in0.0 mm 0.00 in0.0 mm 0.00 in0.0 mm
04:21 PM 86.8°F30.4°C 53.7°F12.1°C 26% 1.6 mph NNW2.6 kmh NNW 1.6 mph2.6 kmh 30.20 in1022.7 mb 0.00 in0.0 mm 0.00 in0.0 mm 0.00 in0.0 mm
04:24 PM 86.6°F30.3°C 53.2°F11.8°C 25% 2.4 mph E3.9 kmh E 2.5 mph4.0 kmh 30.19 in1022.4 mb 0.00 in0.0 mm 0.00 in0.0 mm 0.00 in0.0 mm
04:27 PM 85.2°F29.6°C 51.4°F10.8°C 24% 8.5 mph NNW13.7 kmh NNW 8.6 mph13.8 kmh 30.19 in1022.4 mb 0.00 in0.0 mm 0.00 in0.0 mm 0.00 in0.0 mm
04:30 PM 86.9°F30.5°C 54.8°F12.7°C 27% 0.8 mph E1.3 kmh E 0.8 mph1.3 kmh 30.19 in1022.4 mb 0.00 in0.0 mm 0.00 in0.0 mm 0.00 in0.0 mm
04:33 PM 84.4°F29.1°C 52.2°F11.2°C 25% 3.2 mph NNW5.1 kmh NNW 3.3 mph5.3 kmh 30.19 in1022.4 mb 0.00 in0.0 mm 0.00 in0.0 mm 0.00 in0.0 mm
04:42 PM 85.7°F29.8°C 52.8°F11.6°C 26% 4.0 mph NE6.4 kmh NE 4.1 mph6.6 kmh 30.19 in1022.4 mb 0.00 in0.0 mm 0.00 in0.0 mm 0.00 in0.0 mm
04:45 PM 86.1°F30.1°C 53.1°F11.7°C 26% 3.6 mph NE5.8 kmh NE 3.6 mph5.8 kmh 30.20 in1022.7 mb 0.00 in0.0 mm 0.00 in0.0 mm 0.00 in0.0 mm
04:48 PM 86.3°F30.2°C 54.0°F12.2°C 27% 2.0 mph E3.2 kmh E 2.0 mph3.2 kmh 30.20 in1022.7 mb 0.00 in0.0 mm 0.00 in0.0 mm 0.00 in0.0 mm
04:57 PM 85.8°F29.9°C 52.1°F11.2°C 26% 5.6 mph NE9.0 kmh NE 5.6 mph9.0 kmh 30.20 in1022.7 mb 0.00 in0.0 mm 0.00 in0.0 mm 0.00 in0.0 mm
05:00 PM 84.3°F29.1°C 52.6°F11.4°C 26% 4.8 mph 7.7 kmh 4.9 mph7.9 kmh 30.19 in1022.4 mb 0.00 in0.0 mm 0.00 in0.0 mm 0.00 in0.0 mm
05:03 PM 83.3°F28.5°C 51.6°F10.9°C 26% 5.0 mph NNW8.0 kmh NNW 5.1 mph8.2 kmh 30.19 in1022.4 mb 0.00 in0.0 mm 0.00 in0.0 mm 0.00 in0.0 mm
05:06 PM 82.7°F28.2°C 49.9°F9.9°C 25% 8.6 mph NNW13.8 kmh NNW 8.6 mph13.8 kmh 30.19 in1022.4 mb 0.00 in0.0 mm 0.00 in0.0 mm 0.00 in0.0 mm
05:09 PM 82.3°F27.9°C 49.9°F9.9°C 25% 6.8 mph ENE10.9 kmh ENE 6.8 mph10.9 kmh 30.19 in1022.4 mb 0.00 in0.0 mm 0.00 in0.0 mm 0.00 in0.0 mm
05:12 PM 82.2°F27.9°C 50.1°F10.1°C 25% 6.1 mph NNW9.8 kmh NNW 6.1 mph9.8 kmh 30.19 in1022.4 mb 0.00 in0.0 mm 0.00 in0.0 mm 0.00 in0.0 mm
05:15 PM 83.2°F28.4°C 51.0°F10.6°C 26% 3.4 mph NNW5.5 kmh NNW 3.4 mph5.5 kmh 30.19 in1022.4 mb 0.00 in0.0 mm 0.00 in0.0 mm 0.00 in0.0 mm
05:18 PM 84.2°F29.0°C 53.8°F12.1°C 28% 5.6 mph NE9.0 kmh NE 5.7 mph9.2 kmh 30.19 in1022.4 mb 0.00 in0.0 mm 0.00 in0.0 mm 0.00 in0.0 mm
05:21 PM 83.8°F28.8°C 53.9°F12.2°C 28% 3.6 mph E5.8 kmh E 3.7 mph6.0 kmh 30.19 in1022.4 mb 0.00 in0.0 mm 0.00 in0.0 mm 0.00 in0.0 mm
05:24 PM 83.2°F28.4°C 53.5°F11.9°C 28% 5.7 mph NE9.2 kmh NE 5.8 mph9.3 kmh 30.19 in1022.4 mb 0.00 in0.0 mm 0.00 in0.0 mm 0.00 in0.0 mm
05:30 PM 82.7°F28.2°C 54.5°F12.5°C 30% 6.2 mph NNW10.0 kmh NNW 6.2 mph10.0 kmh 30.19 in1022.4 mb 0.00 in0.0 mm 0.00 in0.0 mm 0.00 in0.0 mm
05:33 PM 82.9°F28.3°C 55.8°F13.2°C 31% 2.4 mph E3.9 kmh E 2.4 mph3.9 kmh 30.19 in1022.4 mb 0.00 in0.0 mm 0.00 in0.0 mm 0.00 in0.0 mm
05:36 PM 83.5°F28.6°C 54.8°F12.7°C 30% 1.6 mph NNW2.6 kmh NNW 1.6 mph2.6 kmh 30.19 in1022.4 mb 0.00 in0.0 mm 0.00 in0.0 mm 0.00 in0.0 mm
05:39 PM 82.6°F28.1°C 55.4°F13.0°C 31% 1.6 mph E2.6 kmh E 1.6 mph2.6 kmh 30.19 in1022.4 mb 0.00 in0.0 mm 0.00 in0.0 mm 0.00 in0.0 mm
05:42 PM 82.9°F28.3°C 53.4°F11.9°C 29% 2.4 mph NNW3.9 kmh NNW 2.4 mph3.9 kmh 30.19 in1022.4 mb 0.00 in0.0 mm 0.00 in0.0 mm 0.00 in0.0 mm
05:48 PM 82.7°F28.2°C 56.6°F13.7°C 32% 3.6 mph ENE5.8 kmh ENE 3.6 mph5.8 kmh 30.19 in1022.4 mb 0.00 in0.0 mm 0.00 in0.0 mm 0.00 in0.0 mm
05:51 PM 82.5°F28.1°C 55.2°F12.9°C 31% 4.4 mph E7.1 kmh E 4.4 mph7.1 kmh 30.19 in1022.4 mb 0.00 in0.0 mm 0.00 in0.0 mm 0.00 in0.0 mm
05:54 PM 82.2°F27.9°C 55.4°F13.0°C 31% 2.0 mph ENE3.2 kmh ENE 2.0 mph3.2 kmh 30.19 in1022.4 mb 0.00 in0.0 mm 0.00 in0.0 mm 0.00 in0.0 mm
05:57 PM 82.1°F27.8°C 55.3°F12.9°C 31% 6.9 mph NE11.1 kmh NE 6.9 mph11.1 kmh 30.20 in1022.7 mb 0.00 in0.0 mm 0.00 in0.0 mm 0.00 in0.0 mm
06:00 PM 81.8°F27.7°C 54.6°F12.6°C 31% 2.8 mph NE4.5 kmh NE 2.8 mph4.5 kmh 30.19 in1022.4 mb 0.00 in0.0 mm 0.00 in0.0 mm 0.00 in0.0 mm
06:03 PM 81.7°F27.6°C 55.4°F13.0°C 32% 6.5 mph NE10.5 kmh NE 6.5 mph10.5 kmh 30.20 in1022.7 mb 0.00 in0.0 mm 0.00 in0.0 mm 0.00 in0.0 mm
06:06 PM 80.7°F27.1°C 55.9°F13.3°C 32% 5.6 mph NE9.0 kmh NE 5.7 mph9.2 kmh 30.19 in1022.4 mb 0.00 in0.0 mm 0.00 in0.0 mm 0.00 in0.0 mm
06:09 PM 80.7°F27.1°C 54.8°F12.7°C 31% 3.2 mph ENE5.1 kmh ENE 3.3 mph5.3 kmh 30.20 in1022.7 mb 0.00 in0.0 mm 0.00 in0.0 mm 0.00 in0.0 mm
06:12 PM 80.5°F26.9°C 55.8°F13.2°C 33% 3.6 mph E5.8 kmh E 3.7 mph6.0 kmh 30.20 in1022.7 mb 0.00 in0.0 mm 0.00 in0.0 mm 0.00 in0.0 mm
06:18 PM 79.5°F26.4°C 55.7°F13.2°C 33% 2.4 mph E3.9 kmh E 2.4 mph3.9 kmh 30.20 in1022.7 mb 0.00 in0.0 mm 0.00 in0.0 mm 0.00 in0.0 mm
06:21 PM 79.0°F26.1°C 54.2°F12.3°C 32% 0.8 mph E1.3 kmh E 0.8 mph1.3 kmh 30.20 in1022.7 mb 0.00 in0.0 mm 0.00 in0.0 mm 0.00 in0.0 mm
06:24 PM 78.7°F25.9°C 55.4°F13.0°C 33% 2.0 mph NNW3.2 kmh NNW 2.0 mph3.2 kmh 30.20 in1022.7 mb 0.00 in0.0 mm 0.00 in0.0 mm 0.00 in0.0 mm
06:30 PM 78.1°F25.6°C 54.7°F12.6°C 32% 2.8 mph E4.5 kmh E 2.9 mph4.7 kmh 30.20 in1022.7 mb 0.00 in0.0 mm 0.00 in0.0 mm 0.00 in0.0 mm
06:33 PM 77.9°F25.5°C 54.3°F12.4°C 32% 2.4 mph E3.9 kmh E 2.4 mph3.9 kmh 30.20 in1022.7 mb 0.00 in0.0 mm 0.00 in0.0 mm 0.00 in0.0 mm
06:36 PM 77.6°F25.3°C 55.7°F13.2°C 34% 4.4 mph NNW7.1 kmh NNW 4.5 mph7.2 kmh 30.20 in1022.7 mb 0.00 in0.0 mm 0.00 in0.0 mm 0.00 in0.0 mm
06:39 PM 77.2°F25.1°C 54.9°F12.7°C 33% 4.8 mph NNW7.7 kmh NNW 4.8 mph7.7 kmh 30.20 in1022.7 mb 0.00 in0.0 mm 0.00 in0.0 mm 0.00 in0.0 mm
06:42 PM 77.0°F25.0°C 54.4°F12.4°C 33% 1.6 mph NNW2.6 kmh NNW 1.6 mph2.6 kmh 30.20 in1022.7 mb 0.00 in0.0 mm 0.00 in0.0 mm 0.00 in0.0 mm
06:45 PM 76.8°F24.9°C 54.4°F12.4°C 33% 2.8 mph ENE4.5 kmh ENE 2.8 mph4.5 kmh 30.20 in1022.7 mb 0.00 in0.0 mm 0.00 in0.0 mm 0.00 in0.0 mm
06:48 PM 76.2°F24.6°C 52.3°F11.3°C 31% 7.9 mph NE12.7 kmh NE 8.0 mph12.9 kmh 30.20 in1022.7 mb 0.00 in0.0 mm 0.00 in0.0 mm 0.00 in0.0 mm
06:51 PM 76.2°F24.6°C 53.3°F11.8°C 32% 6.1 mph ENE9.8 kmh ENE 6.1 mph9.8 kmh 30.20 in1022.7 mb 0.00 in0.0 mm 0.00 in0.0 mm 0.00 in0.0 mm
06:54 PM 76.3°F24.6°C 53.6°F12.0°C 33% 5.7 mph NE9.2 kmh NE 5.7 mph9.2 kmh 30.20 in1022.7 mb 0.00 in0.0 mm 0.00 in0.0 mm 0.00 in0.0 mm
06:57 PM 76.0°F24.4°C 52.0°F11.1°C 31% 7.3 mph NNW11.7 kmh NNW 7.3 mph11.7 kmh 30.20 in1022.7 mb 0.00 in0.0 mm 0.00 in0.0 mm 0.00 in0.0 mm
07:00 PM 75.7°F24.3°C 53.9°F12.2°C 33% 1.5 mph E2.4 kmh E 1.6 mph2.6 kmh 30.20 in1022.7 mb 0.00 in0.0 mm 0.00 in0.0 mm 0.00 in0.0 mm
07:03 PM 75.4°F24.1°C 53.7°F12.1°C 33% 5.4 mph ENE8.7 kmh ENE 5.4 mph8.7 kmh 30.20 in1022.7 mb 0.00 in0.0 mm 0.00 in0.0 mm 0.00 in0.0 mm
07:06 PM 74.6°F23.7°C 53.9°F12.2°C 34% 1.9 mph E3.1 kmh E 1.9 mph3.1 kmh 30.20 in1022.7 mb 0.00 in0.0 mm 0.00 in0.0 mm 0.00 in0.0 mm
07:09 PM 74.9°F23.8°C 53.1°F11.7°C 33% 5.0 mph NE8.0 kmh NE 5.0 mph8.0 kmh 30.20 in1022.7 mb 0.00 in0.0 mm 0.00 in0.0 mm 0.00 in0.0 mm
07:15 PM 74.6°F23.7°C 52.6°F11.4°C 33% 6.0 mph 9.7 kmh 6.0 mph9.7 kmh 30.20 in1022.7 mb 0.00 in0.0 mm 0.00 in0.0 mm 0.00 in0.0 mm
07:18 PM 74.1°F23.4°C 52.2°F11.2°C 33% 6.5 mph NNW10.5 kmh NNW 6.5 mph10.5 kmh 30.20 in1022.7 mb 0.00 in0.0 mm 0.00 in0.0 mm 0.00 in0.0 mm
07:21 PM 74.2°F23.4°C 51.4°F10.8°C 32% 8.7 mph NE14.0 kmh NE 8.7 mph14.0 kmh 30.20 in1022.7 mb 0.00 in0.0 mm 0.00 in0.0 mm 0.00 in0.0 mm
07:24 PM 73.7°F23.2°C 52.5°F11.4°C 34% 2.7 mph ENE4.3 kmh ENE 2.7 mph4.3 kmh 30.20 in1022.7 mb 0.00 in0.0 mm 0.00 in0.0 mm 0.00 in0.0 mm
07:27 PM 73.3°F22.9°C 51.7°F10.9°C 33% 6.1 mph NE9.8 kmh NE 6.1 mph9.8 kmh 30.20 in1022.7 mb 0.00 in0.0 mm 0.00 in0.0 mm 0.00 in0.0 mm
07:30 PM 73.3°F22.9°C 51.3°F10.7°C 33% 4.8 mph NE7.7 kmh NE 4.9 mph7.9 kmh 30.20 in1022.7 mb 0.00 in0.0 mm 0.00 in0.0 mm 0.00 in0.0 mm
07:33 PM 73.1°F22.8°C 51.2°F10.7°C 33% 5.2 mph NNW8.4 kmh NNW 5.3 mph8.5 kmh 30.20 in1022.7 mb 0.00 in0.0 mm 0.00 in0.0 mm 0.00 in0.0 mm
07:36 PM 72.8°F22.7°C 50.6°F10.3°C 32% 8.8 mph NNW14.2 kmh NNW 8.8 mph14.2 kmh 30.20 in1022.7 mb 0.00 in0.0 mm 0.00 in0.0 mm 0.00 in0.0 mm
07:39 PM 73.0°F22.8°C 51.1°F10.6°C 33% 9.1 mph NE14.6 kmh NE 9.2 mph14.8 kmh 30.20 in1022.7 mb 0.00 in0.0 mm 0.00 in0.0 mm 0.00 in0.0 mm
07:42 PM 72.5°F22.5°C 51.7°F10.9°C 34% 1.2 mph NNW1.9 kmh NNW 1.2 mph1.9 kmh 30.20 in1022.7 mb 0.00 in0.0 mm 0.00 in0.0 mm 0.00 in0.0 mm
07:48 PM 71.9°F22.2°C 52.1°F11.2°C 34% 4.4 mph NNW7.1 kmh NNW 4.5 mph7.2 kmh 30.20 in1022.7 mb 0.00 in0.0 mm 0.00 in0.0 mm 0.00 in0.0 mm
07:51 PM 71.6°F22.0°C 52.9°F11.6°C 36% 6.4 mph ENE10.3 kmh ENE 6.5 mph10.5 kmh 30.20 in1022.7 mb 0.00 in0.0 mm 0.00 in0.0 mm 0.00 in0.0 mm
07:54 PM 71.6°F22.0°C 52.9°F11.6°C 36% 6.8 mph NE10.9 kmh NE 6.8 mph10.9 kmh 30.20 in1022.7 mb 0.00 in0.0 mm 0.00 in0.0 mm 0.00 in0.0 mm
07:57 PM 71.0°F21.7°C 53.0°F11.7°C 36% 4.4 mph NNW7.1 kmh NNW 4.4 mph7.1 kmh 30.20 in1022.7 mb 0.00 in0.0 mm 0.00 in0.0 mm 0.00 in0.0 mm
08:00 PM 70.9°F21.6°C 52.7°F11.5°C 36% 6.3 mph NE10.1 kmh NE 6.4 mph10.3 kmh 30.20 in1022.7 mb 0.00 in0.0 mm 0.00 in0.0 mm 0.00 in0.0 mm
08:03 PM 70.6°F21.4°C 52.1°F11.2°C 36% 4.4 mph NE7.1 kmh NE 4.4 mph7.1 kmh 30.20 in1022.7 mb 0.00 in0.0 mm 0.00 in0.0 mm 0.00 in0.0 mm
08:06 PM 70.5°F21.4°C 52.6°F11.4°C 36% 6.5 mph NE10.5 kmh NE 6.5 mph10.5 kmh 30.20 in1022.7 mb 0.00 in0.0 mm 0.00 in0.0 mm 0.00 in0.0 mm
08:09 PM 69.9°F21.1°C 53.1°F11.7°C 38% Calm Calm -- 30.20 in1022.7 mb 0.00 in0.0 mm 0.00 in0.0 mm 0.00 in0.0 mm
08:12 PM 69.0°F20.6°C 55.3°F12.9°C 40% Calm Calm -- 30.20 in1022.7 mb 0.00 in0.0 mm 0.00 in0.0 mm 0.00 in0.0 mm
08:15 PM 68.6°F20.3°C 53.6°F12.0°C 39% Calm Calm -- 30.20 in1022.7 mb 0.00 in0.0 mm 0.00 in0.0 mm 0.00 in0.0 mm
08:18 PM 68.2°F20.1°C 54.6°F12.6°C 41% 0.4 mph ENE0.6 kmh ENE 0.4 mph0.6 kmh 30.20 in1022.7 mb 0.00 in0.0 mm 0.00 in0.0 mm 0.00 in0.0 mm
08:21 PM 66.9°F19.4°C 55.7°F13.2°C 42% 1.6 mph E2.6 kmh E 1.6 mph2.6 kmh 30.20 in1022.7 mb 0.00 in0.0 mm 0.00 in0.0 mm 0.00 in0.0 mm
08:24 PM 67.6°F19.8°C 54.8°F12.7°C 41% 2.0 mph NE3.2 kmh NE 2.0 mph3.2 kmh 30.20 in1022.7 mb 0.00 in0.0 mm 0.00 in0.0 mm 0.00 in0.0 mm
08:27 PM 67.9°F19.9°C 54.5°F12.5°C 41% Calm Calm -- 30.20 in1022.7 mb 0.00 in0.0 mm 0.00 in0.0 mm 0.00 in0.0 mm
08:30 PM 66.9°F19.4°C 52.6°F11.4°C 39% 1.6 mph NNW2.6 kmh NNW 1.6 mph2.6 kmh 30.21 in1023.0 mb 0.00 in0.0 mm 0.00 in0.0 mm 0.00 in0.0 mm
08:33 PM 68.6°F20.3°C 52.1°F11.2°C 38% 1.2 mph 1.9 kmh 1.2 mph1.9 kmh 30.21 in1023.0 mb 0.00 in0.0 mm 0.00 in0.0 mm 0.00 in0.0 mm
08:36 PM 67.7°F19.8°C 51.5°F10.8°C 38% Calm Calm -- 30.21 in1023.0 mb 0.00 in0.0 mm 0.00 in0.0 mm 0.00 in0.0 mm
08:39 PM 66.5°F19.2°C 54.0°F12.2°C 42% 0.4 mph 0.6 kmh 0.4 mph0.6 kmh 30.22 in1023.4 mb 0.00 in0.0 mm 0.00 in0.0 mm 0.00 in0.0 mm
08:42 PM 66.3°F19.1°C 54.7°F12.6°C 42% 2.8 mph NE4.5 kmh NE 2.8 mph4.5 kmh 30.22 in1023.4 mb 0.00 in0.0 mm 0.00 in0.0 mm 0.00 in0.0 mm
08:48 PM 66.9°F19.4°C 52.6°F11.4°C 40% 4.8 mph NE7.7 kmh NE 4.8 mph7.7 kmh 30.22 in1023.4 mb 0.00 in0.0 mm 0.00 in0.0 mm 0.00 in0.0 mm
08:51 PM 67.9°F19.9°C 51.4°F10.8°C 39% 2.8 mph 4.5 kmh 2.8 mph4.5 kmh 30.22 in1023.4 mb 0.00 in0.0 mm 0.00 in0.0 mm 0.00 in0.0 mm
08:54 PM 67.6°F19.8°C 51.9°F11.1°C 40% 1.6 mph NNW2.6 kmh NNW 1.6 mph2.6 kmh 30.22 in1023.4 mb 0.00 in0.0 mm 0.00 in0.0 mm 0.00 in0.0 mm
08:57 PM 67.7°F19.8°C 52.4°F11.3°C 40% 1.6 mph 2.6 kmh 1.6 mph2.6 kmh 30.22 in1023.4 mb 0.00 in0.0 mm 0.00 in0.0 mm 0.00 in0.0 mm
09:00 PM 67.0°F19.4°C 52.5°F11.4°C 41% 1.6 mph NE2.6 kmh NE 1.6 mph2.6 kmh 30.22 in1023.4 mb 0.00 in0.0 mm 0.00 in0.0 mm 0.00 in0.0 mm
09:06 PM 66.7°F19.3°C 53.3°F11.8°C 42% 1.5 mph NE2.4 kmh NE 1.6 mph2.6 kmh 30.22 in1023.4 mb 0.00 in0.0 mm 0.00 in0.0 mm 0.00 in0.0 mm
09:09 PM 65.4°F18.6°C 54.0°F12.2°C 44% Calm Calm -- 30.22 in1023.4 mb 0.00 in0.0 mm 0.00 in0.0 mm 0.00 in0.0 mm
09:12 PM 65.3°F18.5°C 53.7°F12.1°C 42% Calm Calm -- 30.22 in1023.4 mb 0.00 in0.0 mm 0.00 in0.0 mm 0.00 in0.0 mm
09:15 PM 65.6°F18.7°C 53.9°F12.2°C 43% 3.0 mph ENE4.8 kmh ENE 3.0 mph4.8 kmh 30.22 in1023.4 mb 0.00 in0.0 mm 0.00 in0.0 mm 0.00 in0.0 mm
09:18 PM 65.5°F18.6°C 53.4°F11.9°C 43% 0.4 mph NE0.6 kmh NE 0.4 mph0.6 kmh 30.22 in1023.4 mb 0.00 in0.0 mm 0.00 in0.0 mm 0.00 in0.0 mm
09:21 PM 64.7°F18.2°C 54.1°F12.3°C 46% 0.8 mph ENE1.3 kmh ENE 0.8 mph1.3 kmh 30.23 in1023.7 mb 0.00 in0.0 mm 0.00 in0.0 mm 0.00 in0.0 mm
09:24 PM 65.2°F18.4°C 52.7°F11.5°C 43% 1.5 mph NE2.4 kmh NE 1.6 mph2.6 kmh 30.23 in1023.7 mb 0.00 in0.0 mm 0.00 in0.0 mm 0.00 in0.0 mm
09:27 PM 65.0°F18.3°C 52.7°F11.5°C 44% 0.4 mph NE0.6 kmh NE 0.4 mph0.6 kmh 30.23 in1023.7 mb 0.00 in0.0 mm 0.00 in0.0 mm 0.00 in0.0 mm
09:30 PM 64.7°F18.2°C 52.9°F11.6°C 44% 0.8 mph NE1.3 kmh NE 0.8 mph1.3 kmh 30.23 in1023.7 mb 0.00 in0.0 mm 0.00 in0.0 mm 0.00 in0.0 mm
09:33 PM 65.1°F18.4°C 52.0°F11.1°C 43% 1.6 mph NNW2.6 kmh NNW 1.6 mph2.6 kmh 30.23 in1023.7 mb 0.00 in0.0 mm 0.00 in0.0 mm 0.00 in0.0 mm
09:36 PM 66.0°F18.9°C 51.9°F11.1°C 43% Calm Calm -- 30.23 in1023.7 mb 0.00 in0.0 mm 0.00 in0.0 mm 0.00 in0.0 mm
09:39 PM 65.4°F18.6°C 52.6°F11.4°C 44% 1.6 mph NNE2.6 kmh NNE 1.6 mph2.6 kmh 30.23 in1023.7 mb 0.00 in0.0 mm 0.00 in0.0 mm 0.00 in0.0 mm
09:42 PM 64.7°F18.2°C 52.7°F11.5°C 44% Calm Calm -- 30.23 in1023.7 mb 0.00 in0.0 mm 0.00 in0.0 mm 0.00 in0.0 mm
09:45 PM 64.1°F17.8°C 53.5°F11.9°C 46% Calm Calm -- 30.23 in1023.7 mb 0.00 in0.0 mm 0.00 in0.0 mm 0.00 in0.0 mm
09:48 PM 63.8°F17.7°C 53.5°F11.9°C 45% Calm Calm -- 30.23 in1023.7 mb 0.00 in0.0 mm 0.00 in0.0 mm 0.00 in0.0 mm
09:51 PM 64.6°F18.1°C 53.4°F11.9°C 46% Calm Calm -- 30.23 in1023.7 mb 0.00 in0.0 mm 0.00 in0.0 mm 0.00 in0.0 mm
09:54 PM 64.1°F17.8°C 53.1°F11.7°C 46% 2.0 mph SE3.2 kmh SE 2.0 mph3.2 kmh 30.23 in1023.7 mb 0.00 in0.0 mm 0.00 in0.0 mm 0.00 in0.0 mm
09:57 PM 63.6°F17.6°C 53.9°F12.2°C 48% Calm Calm -- 30.23 in1023.7 mb 0.00 in0.0 mm 0.00 in0.0 mm 0.00 in0.0 mm
10:00 PM 64.9°F18.3°C 53.7°F12.1°C 46% 0.8 mph NNE1.3 kmh NNE 0.8 mph1.3 kmh 30.23 in1023.7 mb 0.00 in0.0 mm 0.00 in0.0 mm 0.00 in0.0 mm
10:03 PM 63.5°F17.5°C 53.9°F12.2°C 48% 1.6 mph NNW2.6 kmh NNW 1.6 mph2.6 kmh 30.23 in1023.7 mb 0.00 in0.0 mm 0.00 in0.0 mm 0.00 in0.0 mm
10:06 PM 62.9°F17.2°C 54.1°F12.3°C 49% Calm Calm -- 30.23 in1023.7 mb 0.00 in0.0 mm 0.00 in0.0 mm 0.00 in0.0 mm
10:09 PM 62.9°F17.2°C 54.3°F12.4°C 49% 1.6 mph E2.6 kmh E 1.6 mph2.6 kmh 30.23 in1023.7 mb 0.00 in0.0 mm 0.00 in0.0 mm 0.00 in0.0 mm
10:12 PM 62.7°F17.1°C 54.2°F12.3°C 49% Calm Calm -- 30.23 in1023.7 mb 0.00 in0.0 mm 0.00 in0.0 mm 0.00 in0.0 mm
10:15 PM 63.1°F17.3°C 54.1°F12.3°C 49% 1.6 mph NNW2.6 kmh NNW 1.6 mph2.6 kmh 30.23 in1023.7 mb 0.00 in0.0 mm 0.00 in0.0 mm 0.00 in0.0 mm
10:18 PM 63.8°F17.7°C 53.9°F12.2°C 49% Calm Calm -- 30.23 in1023.7 mb 0.00 in0.0 mm 0.00 in0.0 mm 0.00 in0.0 mm
10:21 PM 63.6°F17.6°C 54.4°F12.4°C 50% Calm Calm -- 30.23 in1023.7 mb 0.00 in0.0 mm 0.00 in0.0 mm 0.00 in0.0 mm
10:24 PM 63.5°F17.5°C 54.2°F12.3°C 50% 0.4 mph E0.6 kmh E 0.4 mph0.6 kmh 30.23 in1023.7 mb 0.00 in0.0 mm 0.00 in0.0 mm 0.00 in0.0 mm
10:27 PM 63.8°F17.7°C 55.0°F12.8°C 51% 0.4 mph ENE0.6 kmh ENE 0.4 mph0.6 kmh 30.23 in1023.7 mb 0.00 in0.0 mm 0.00 in0.0 mm 0.00 in0.0 mm
10:30 PM 62.9°F17.2°C 54.9°F12.7°C 51% Calm Calm -- 30.23 in1023.7 mb 0.00 in0.0 mm 0.00 in0.0 mm 0.00 in0.0 mm
10:33 PM 64.7°F18.2°C 55.1°F12.8°C 52% 3.6 mph 5.8 kmh 3.6 mph5.8 kmh 30.23 in1023.7 mb 0.00 in0.0 mm 0.00 in0.0 mm 0.00 in0.0 mm
10:36 PM 64.3°F17.9°C 55.5°F13.1°C 52% 4.3 mph NNW6.9 kmh NNW 4.4 mph7.1 kmh 30.23 in1023.7 mb 0.00 in0.0 mm 0.00 in0.0 mm 0.00 in0.0 mm
10:39 PM 64.4°F18.0°C 55.4°F13.0°C 53% 3.2 mph NE5.1 kmh NE 3.2 mph5.1 kmh 30.23 in1023.7 mb 0.00 in0.0 mm 0.00 in0.0 mm 0.00 in0.0 mm
10:42 PM 64.0°F17.8°C 55.5°F13.1°C 53% 1.9 mph NE3.1 kmh NE 2.0 mph3.2 kmh 30.23 in1023.7 mb 0.00 in0.0 mm 0.00 in0.0 mm 0.00 in0.0 mm
10:45 PM 64.5°F18.1°C 55.2°F12.9°C 53% 0.8 mph NNW1.3 kmh NNW 0.8 mph1.3 kmh 30.23 in1023.7 mb 0.00 in0.0 mm 0.00 in0.0 mm 0.00 in0.0 mm
10:48 PM 63.8°F17.7°C 55.8°F13.2°C 53% 0.8 mph ENE1.3 kmh ENE 0.8 mph1.3 kmh 30.23 in1023.7 mb 0.00 in0.0 mm 0.00 in0.0 mm 0.00 in0.0 mm
10:51 PM 63.2°F17.3°C 55.2°F12.9°C 53% Calm Calm -- 30.23 in1023.7 mb 0.00 in0.0 mm 0.00 in0.0 mm 0.00 in0.0 mm
10:54 PM 62.8°F17.1°C 55.6°F13.1°C 53% 1.6 mph 2.6 kmh 1.6 mph2.6 kmh 30.23 in1023.7 mb 0.00 in0.0 mm 0.00 in0.0 mm 0.00 in0.0 mm
10:57 PM 62.5°F16.9°C 55.7°F13.2°C 54% 3.1 mph NNW5.0 kmh NNW 3.1 mph5.0 kmh 30.23 in1023.7 mb 0.00 in0.0 mm 0.00 in0.0 mm 0.00 in0.0 mm
11:00 PM 62.5°F16.9°C 55.5°F13.1°C 54% 2.7 mph NNW4.3 kmh NNW 2.9 mph4.7 kmh 30.23 in1023.7 mb 0.00 in0.0 mm 0.00 in0.0 mm 0.00 in0.0 mm
11:03 PM 63.6°F17.6°C 55.5°F13.1°C 54% 1.6 mph NW2.6 kmh NW 1.6 mph2.6 kmh 30.23 in1023.7 mb 0.00 in0.0 mm 0.00 in0.0 mm 0.00 in0.0 mm
11:06 PM 63.8°F17.7°C 55.5°F13.1°C 55% 1.2 mph NNW1.9 kmh NNW 1.2 mph1.9 kmh 30.23 in1023.7 mb 0.00 in0.0 mm 0.00 in0.0 mm 0.00 in0.0 mm
11:15 PM 63.4°F17.4°C 56.3°F13.5°C 56% 3.4 mph NE5.5 kmh NE 3.4 mph5.5 kmh 30.23 in1023.7 mb 0.00 in0.0 mm 0.00 in0.0 mm 0.00 in0.0 mm
11:18 PM 63.5°F17.5°C 56.2°F13.4°C 57% 2.7 mph NNW4.3 kmh NNW 2.7 mph4.3 kmh 30.23 in1023.7 mb 0.00 in0.0 mm 0.00 in0.0 mm 0.00 in0.0 mm
11:21 PM 63.4°F17.4°C 56.6°F13.7°C 57% 10.7 mph NNW17.2 kmh NNW 10.7 mph17.2 kmh 30.23 in1023.7 mb 0.00 in0.0 mm 0.00 in0.0 mm 0.00 in0.0 mm
11:24 PM 63.4°F17.4°C 56.1°F13.4°C 58% 8.1 mph NE13.0 kmh NE 8.1 mph13.0 kmh 30.23 in1023.7 mb 0.00 in0.0 mm 0.00 in0.0 mm 0.00 in0.0 mm
11:27 PM 62.9°F17.2°C 56.1°F13.4°C 57% 4.0 mph NE6.4 kmh NE 4.1 mph6.6 kmh 30.23 in1023.7 mb 0.00 in0.0 mm 0.00 in0.0 mm 0.00 in0.0 mm
11:30 PM 62.6°F17.0°C 56.5°F13.6°C 57% Calm Calm -- 30.23 in1023.7 mb 0.00 in0.0 mm 0.00 in0.0 mm 0.00 in0.0 mm
11:33 PM 62.9°F17.2°C 56.3°F13.5°C 58% 6.0 mph NE9.7 kmh NE 6.1 mph9.8 kmh 30.23 in1023.7 mb 0.00 in0.0 mm 0.00 in0.0 mm 0.00 in0.0 mm
11:36 PM 62.8°F17.1°C 56.0°F13.3°C 58% 2.7 mph NNW4.3 kmh NNW 2.7 mph4.3 kmh 30.23 in1023.7 mb 0.00 in0.0 mm 0.00 in0.0 mm 0.00 in0.0 mm
11:39 PM 62.7°F17.1°C 56.0°F13.3°C 57% 0.8 mph NE1.3 kmh NE 0.8 mph1.3 kmh 30.23 in1023.7 mb 0.00 in0.0 mm 0.00 in0.0 mm 0.00 in0.0 mm
11:42 PM 62.6°F17.0°C 56.3°F13.5°C 57% 8.4 mph NNW13.5 kmh NNW 8.4 mph13.5 kmh 30.23 in1023.7 mb 0.00 in0.0 mm 0.00 in0.0 mm 0.00 in0.0 mm
11:45 PM 62.7°F17.1°C 55.8°F13.2°C 57% 0.8 mph 1.3 kmh 0.8 mph1.3 kmh 30.23 in1023.7 mb 0.00 in0.0 mm 0.00 in0.0 mm 0.00 in0.0 mm
11:48 PM 62.4°F16.9°C 56.4°F13.6°C 58% 2.3 mph NNW3.7 kmh NNW 2.3 mph3.7 kmh 30.23 in1023.7 mb 0.00 in0.0 mm 0.00 in0.0 mm 0.00 in0.0 mm
11:51 PM 62.8°F17.1°C 56.3°F13.5°C 59% 3.1 mph NE5.0 kmh NE 3.1 mph5.0 kmh 30.23 in1023.7 mb 0.00 in0.0 mm 0.00 in0.0 mm 0.00 in0.0 mm
11:54 PM 62.3°F16.8°C 56.3°F13.5°C 59% 2.4 mph NNW3.9 kmh NNW 2.4 mph3.9 kmh 30.23 in1023.7 mb 0.00 in0.0 mm 0.00 in0.0 mm 0.00 in0.0 mm